<?xml version="1.0" encoding="UTF-8" standalone="no" ?>
<gpx xmlns="http://www.topografix.com/GPX/1/1" xmlns:xsi="http://www.w3.org/2001/XMLSchema-instance" xsi:schemaLocation="http://www.topografix.com/GPX/1/1 http://www.topografix.com/GPX/1/1/gpx.xsd" version="1.1" creator="VisuGPX - https://www.visugpx.com">
  <metadata>
    <name>Locronan/Mescalet</name>
    <desc><![CDATA[Départ parking à gauche du rond point à l'entrée de Locronan. En cette fin d'année, ce village l'un des plus beau de France est illuminé, et propose un marché de Noël, et l'inévitable vin chaud. Tout ceci est le prétexte d'une rando dans le bois du Névet, superbe même en hiver. Une multitude de sentiers le parcours en tous sens, un GPS ou une bonne carte au 25000 est nécessaire. Ce parcours suit le GR38, et différents PR.
Bonne Année à Tous]]></desc>
  </metadata>
  <trk>
    <name><![CDATA[Locronan / Mescalet 28 DEC 2017 11:05]]></name>
    <trkseg>
      <trkpt lat="48.09778" lon="-4.21583">
        <ele>75.6</ele>
        <time>2017-12-28T10:08:03Z</time>
      </trkpt>
      <trkpt lat="48.09772" lon="-4.21561">
        <ele>143.85</ele>
        <time>2017-12-28T12:51:02Z</time>
      </trkpt>
      <trkpt lat="48.0977" lon="-4.21557">
        <ele>145.78</ele>
        <time>2017-12-28T12:51:39Z</time>
      </trkpt>
      <trkpt lat="48.09769" lon="-4.2156">
        <ele>149.14</ele>
        <time>2017-12-28T12:52:14Z</time>
      </trkpt>
      <trkpt lat="48.0977" lon="-4.21565">
        <ele>147.22</ele>
        <time>2017-12-28T12:52:38Z</time>
      </trkpt>
      <trkpt lat="48.09769" lon="-4.21564">
        <ele>147.22</ele>
        <time>2017-12-28T12:52:56Z</time>
      </trkpt>
      <trkpt lat="48.0977" lon="-4.21566">
        <ele>146.26</ele>
        <time>2017-12-28T12:53:22Z</time>
      </trkpt>
      <trkpt lat="48.09769" lon="-4.21566">
        <ele>146.74</ele>
        <time>2017-12-28T12:53:50Z</time>
      </trkpt>
      <trkpt lat="48.09769" lon="-4.21565">
        <ele>147.7</ele>
        <time>2017-12-28T12:54:15Z</time>
      </trkpt>
      <trkpt lat="48.09771" lon="-4.21563">
        <ele>147.22</ele>
        <time>2017-12-28T12:54:23Z</time>
      </trkpt>
      <trkpt lat="48.09769" lon="-4.21563">
        <ele>146.74</ele>
        <time>2017-12-28T12:54:31Z</time>
      </trkpt>
      <trkpt lat="48.09774" lon="-4.21561">
        <ele>146.26</ele>
        <time>2017-12-28T12:54:41Z</time>
      </trkpt>
      <trkpt lat="48.09772" lon="-4.21562">
        <ele>146.26</ele>
        <time>2017-12-28T12:54:52Z</time>
      </trkpt>
      <trkpt lat="48.09771" lon="-4.21562">
        <ele>145.3</ele>
        <time>2017-12-28T12:55:08Z</time>
      </trkpt>
      <trkpt lat="48.09772" lon="-4.21561">
        <ele>145.3</ele>
        <time>2017-12-28T12:55:29Z</time>
      </trkpt>
      <trkpt lat="48.09775" lon="-4.21555">
        <ele>144.34</ele>
        <time>2017-12-28T12:55:42Z</time>
      </trkpt>
      <trkpt lat="48.09786" lon="-4.21526">
        <ele>142.89</ele>
        <time>2017-12-28T12:56:06Z</time>
      </trkpt>
      <trkpt lat="48.09785" lon="-4.21516">
        <ele>142.89</ele>
        <time>2017-12-28T12:56:10Z</time>
      </trkpt>
      <trkpt lat="48.09787" lon="-4.21511">
        <ele>143.37</ele>
        <time>2017-12-28T12:56:18Z</time>
      </trkpt>
      <trkpt lat="48.09787" lon="-4.21511">
        <ele>142.89</ele>
        <time>2017-12-28T12:56:20Z</time>
      </trkpt>
      <trkpt lat="48.09786" lon="-4.21505">
        <ele>142.89</ele>
        <time>2017-12-28T12:56:25Z</time>
      </trkpt>
      <trkpt lat="48.09779" lon="-4.21491">
        <ele>140.01</ele>
        <time>2017-12-28T12:56:33Z</time>
      </trkpt>
      <trkpt lat="48.09779" lon="-4.21486">
        <ele>140.49</ele>
        <time>2017-12-28T12:56:38Z</time>
      </trkpt>
      <trkpt lat="48.09776" lon="-4.2148">
        <ele>139.53</ele>
        <time>2017-12-28T12:56:42Z</time>
      </trkpt>
      <trkpt lat="48.09771" lon="-4.21459">
        <ele>141.45</ele>
        <time>2017-12-28T12:56:55Z</time>
      </trkpt>
      <trkpt lat="48.09771" lon="-4.21457">
        <ele>141.45</ele>
        <time>2017-12-28T12:56:56Z</time>
      </trkpt>
      <trkpt lat="48.09773" lon="-4.21443">
        <ele>140.49</ele>
        <time>2017-12-28T12:57:05Z</time>
      </trkpt>
      <trkpt lat="48.09774" lon="-4.21439">
        <ele>140.49</ele>
        <time>2017-12-28T12:57:07Z</time>
      </trkpt>
      <trkpt lat="48.09776" lon="-4.21434">
        <ele>140.97</ele>
        <time>2017-12-28T12:57:11Z</time>
      </trkpt>
      <trkpt lat="48.09776" lon="-4.2142">
        <ele>140.01</ele>
        <time>2017-12-28T12:57:16Z</time>
      </trkpt>
      <trkpt lat="48.09775" lon="-4.21411">
        <ele>137.13</ele>
        <time>2017-12-28T12:57:22Z</time>
      </trkpt>
      <trkpt lat="48.09775" lon="-4.21401">
        <ele>135.2</ele>
        <time>2017-12-28T12:57:28Z</time>
      </trkpt>
      <trkpt lat="48.09776" lon="-4.21391">
        <ele>135.2</ele>
        <time>2017-12-28T12:57:33Z</time>
      </trkpt>
      <trkpt lat="48.09778" lon="-4.21376">
        <ele>132.8</ele>
        <time>2017-12-28T12:57:44Z</time>
      </trkpt>
      <trkpt lat="48.09781" lon="-4.21373">
        <ele>132.8</ele>
        <time>2017-12-28T12:57:47Z</time>
      </trkpt>
      <trkpt lat="48.09784" lon="-4.21368">
        <ele>133.76</ele>
        <time>2017-12-28T12:57:52Z</time>
      </trkpt>
      <trkpt lat="48.09783" lon="-4.21354">
        <ele>134.72</ele>
        <time>2017-12-28T12:57:59Z</time>
      </trkpt>
      <trkpt lat="48.09784" lon="-4.21341">
        <ele>135.2</ele>
        <time>2017-12-28T12:58:05Z</time>
      </trkpt>
      <trkpt lat="48.09785" lon="-4.21335">
        <ele>136.16</ele>
        <time>2017-12-28T12:58:09Z</time>
      </trkpt>
      <trkpt lat="48.09783" lon="-4.21324">
        <ele>136.64</ele>
        <time>2017-12-28T12:58:14Z</time>
      </trkpt>
      <trkpt lat="48.09783" lon="-4.2132">
        <ele>137.13</ele>
        <time>2017-12-28T12:58:17Z</time>
      </trkpt>
      <trkpt lat="48.09786" lon="-4.21314">
        <ele>138.57</ele>
        <time>2017-12-28T12:58:20Z</time>
      </trkpt>
      <trkpt lat="48.09788" lon="-4.21303">
        <ele>140.97</ele>
        <time>2017-12-28T12:58:26Z</time>
      </trkpt>
      <trkpt lat="48.0979" lon="-4.21299">
        <ele>142.41</ele>
        <time>2017-12-28T12:58:30Z</time>
      </trkpt>
      <trkpt lat="48.09792" lon="-4.21291">
        <ele>142.89</ele>
        <time>2017-12-28T12:58:34Z</time>
      </trkpt>
      <trkpt lat="48.09794" lon="-4.21283">
        <ele>144.82</ele>
        <time>2017-12-28T12:58:39Z</time>
      </trkpt>
      <trkpt lat="48.09797" lon="-4.21275">
        <ele>145.78</ele>
        <time>2017-12-28T12:58:45Z</time>
      </trkpt>
      <trkpt lat="48.09798" lon="-4.2127">
        <ele>146.26</ele>
        <time>2017-12-28T12:58:49Z</time>
      </trkpt>
      <trkpt lat="48.09796" lon="-4.21263">
        <ele>146.74</ele>
        <time>2017-12-28T12:58:53Z</time>
      </trkpt>
      <trkpt lat="48.09792" lon="-4.21235">
        <ele>148.18</ele>
        <time>2017-12-28T12:59:04Z</time>
      </trkpt>
      <trkpt lat="48.09789" lon="-4.21212">
        <ele>149.14</ele>
        <time>2017-12-28T12:59:14Z</time>
      </trkpt>
      <trkpt lat="48.09789" lon="-4.21208">
        <ele>149.62</ele>
        <time>2017-12-28T12:59:16Z</time>
      </trkpt>
      <trkpt lat="48.0979" lon="-4.21205">
        <ele>149.62</ele>
        <time>2017-12-28T12:59:18Z</time>
      </trkpt>
      <trkpt lat="48.09784" lon="-4.21184">
        <ele>149.62</ele>
        <time>2017-12-28T12:59:34Z</time>
      </trkpt>
      <trkpt lat="48.09767" lon="-4.21177">
        <ele>146.74</ele>
        <time>2017-12-28T12:59:49Z</time>
      </trkpt>
      <trkpt lat="48.09755" lon="-4.21181">
        <ele>147.22</ele>
        <time>2017-12-28T13:00:02Z</time>
      </trkpt>
      <trkpt lat="48.09744" lon="-4.21179">
        <ele>148.66</ele>
        <time>2017-12-28T13:00:11Z</time>
      </trkpt>
      <trkpt lat="48.0974" lon="-4.21181">
        <ele>146.26</ele>
        <time>2017-12-28T13:00:15Z</time>
      </trkpt>
      <trkpt lat="48.09738" lon="-4.21178">
        <ele>144.82</ele>
        <time>2017-12-28T13:00:17Z</time>
      </trkpt>
      <trkpt lat="48.09732" lon="-4.21177">
        <ele>142.41</ele>
        <time>2017-12-28T13:00:22Z</time>
      </trkpt>
      <trkpt lat="48.09722" lon="-4.2118">
        <ele>139.05</ele>
        <time>2017-12-28T13:00:32Z</time>
      </trkpt>
      <trkpt lat="48.09717" lon="-4.21183">
        <ele>138.57</ele>
        <time>2017-12-28T13:00:37Z</time>
      </trkpt>
      <trkpt lat="48.09707" lon="-4.21185">
        <ele>137.13</ele>
        <time>2017-12-28T13:00:46Z</time>
      </trkpt>
      <trkpt lat="48.0969" lon="-4.21196">
        <ele>143.37</ele>
        <time>2017-12-28T13:00:57Z</time>
      </trkpt>
      <trkpt lat="48.09685" lon="-4.21199">
        <ele>144.82</ele>
        <time>2017-12-28T13:01:03Z</time>
      </trkpt>
      <trkpt lat="48.09678" lon="-4.21202">
        <ele>147.22</ele>
        <time>2017-12-28T13:01:08Z</time>
      </trkpt>
      <trkpt lat="48.09674" lon="-4.21204">
        <ele>147.7</ele>
        <time>2017-12-28T13:01:12Z</time>
      </trkpt>
      <trkpt lat="48.09673" lon="-4.21207">
        <ele>147.7</ele>
        <time>2017-12-28T13:01:14Z</time>
      </trkpt>
      <trkpt lat="48.09671" lon="-4.21213">
        <ele>146.74</ele>
        <time>2017-12-28T13:01:24Z</time>
      </trkpt>
      <trkpt lat="48.09677" lon="-4.21211">
        <ele>145.78</ele>
        <time>2017-12-28T13:01:36Z</time>
      </trkpt>
      <trkpt lat="48.09683" lon="-4.21207">
        <ele>142.89</ele>
        <time>2017-12-28T13:01:46Z</time>
      </trkpt>
      <trkpt lat="48.09692" lon="-4.21205">
        <ele>142.41</ele>
        <time>2017-12-28T13:01:56Z</time>
      </trkpt>
      <trkpt lat="48.09703" lon="-4.21204">
        <ele>141.45</ele>
        <time>2017-12-28T13:02:08Z</time>
      </trkpt>
      <trkpt lat="48.09704" lon="-4.21204">
        <ele>141.45</ele>
        <time>2017-12-28T13:02:10Z</time>
      </trkpt>
      <trkpt lat="48.09715" lon="-4.21208">
        <ele>145.78</ele>
        <time>2017-12-28T13:02:16Z</time>
      </trkpt>
      <trkpt lat="48.09706" lon="-4.2121">
        <ele>145.78</ele>
        <time>2017-12-28T13:02:24Z</time>
      </trkpt>
      <trkpt lat="48.09695" lon="-4.21207">
        <ele>140.01</ele>
        <time>2017-12-28T13:02:38Z</time>
      </trkpt>
      <trkpt lat="48.09691" lon="-4.21207">
        <ele>137.61</ele>
        <time>2017-12-28T13:02:42Z</time>
      </trkpt>
      <trkpt lat="48.09685" lon="-4.2121">
        <ele>135.68</ele>
        <time>2017-12-28T13:02:47Z</time>
      </trkpt>
      <trkpt lat="48.09682" lon="-4.2121">
        <ele>135.68</ele>
        <time>2017-12-28T13:02:50Z</time>
      </trkpt>
      <trkpt lat="48.09678" lon="-4.21213">
        <ele>134.72</ele>
        <time>2017-12-28T13:02:53Z</time>
      </trkpt>
      <trkpt lat="48.09666" lon="-4.21222">
        <ele>140.97</ele>
        <time>2017-12-28T13:02:59Z</time>
      </trkpt>
      <trkpt lat="48.09649" lon="-4.21222">
        <ele>142.89</ele>
        <time>2017-12-28T13:03:12Z</time>
      </trkpt>
      <trkpt lat="48.09633" lon="-4.21227">
        <ele>146.26</ele>
        <time>2017-12-28T13:03:24Z</time>
      </trkpt>
      <trkpt lat="48.09632" lon="-4.21227">
        <ele>146.26</ele>
        <time>2017-12-28T13:03:25Z</time>
      </trkpt>
      <trkpt lat="48.09617" lon="-4.21233">
        <ele>145.78</ele>
        <time>2017-12-28T13:03:37Z</time>
      </trkpt>
      <trkpt lat="48.09595" lon="-4.21238">
        <ele>153.47</ele>
        <time>2017-12-28T13:03:51Z</time>
      </trkpt>
      <trkpt lat="48.09589" lon="-4.21238">
        <ele>153.95</ele>
        <time>2017-12-28T13:03:56Z</time>
      </trkpt>
      <trkpt lat="48.09572" lon="-4.2124">
        <ele>153.95</ele>
        <time>2017-12-28T13:04:11Z</time>
      </trkpt>
      <trkpt lat="48.09552" lon="-4.21242">
        <ele>156.35</ele>
        <time>2017-12-28T13:04:24Z</time>
      </trkpt>
      <trkpt lat="48.09533" lon="-4.21244">
        <ele>157.79</ele>
        <time>2017-12-28T13:04:40Z</time>
      </trkpt>
      <trkpt lat="48.09518" lon="-4.21246">
        <ele>159.72</ele>
        <time>2017-12-28T13:04:52Z</time>
      </trkpt>
      <trkpt lat="48.095" lon="-4.21247">
        <ele>158.75</ele>
        <time>2017-12-28T13:05:08Z</time>
      </trkpt>
      <trkpt lat="48.09497" lon="-4.21249">
        <ele>157.79</ele>
        <time>2017-12-28T13:05:12Z</time>
      </trkpt>
      <trkpt lat="48.09485" lon="-4.2125">
        <ele>157.79</ele>
        <time>2017-12-28T13:05:19Z</time>
      </trkpt>
      <trkpt lat="48.09464" lon="-4.21257">
        <ele>159.72</ele>
        <time>2017-12-28T13:05:36Z</time>
      </trkpt>
      <trkpt lat="48.09461" lon="-4.21258">
        <ele>159.72</ele>
        <time>2017-12-28T13:05:39Z</time>
      </trkpt>
      <trkpt lat="48.09455" lon="-4.2126">
        <ele>158.75</ele>
        <time>2017-12-28T13:05:43Z</time>
      </trkpt>
      <trkpt lat="48.09451" lon="-4.21261">
        <ele>156.83</ele>
        <time>2017-12-28T13:05:47Z</time>
      </trkpt>
      <trkpt lat="48.09437" lon="-4.21263">
        <ele>152.99</ele>
        <time>2017-12-28T13:05:59Z</time>
      </trkpt>
      <trkpt lat="48.09432" lon="-4.21263">
        <ele>152.03</ele>
        <time>2017-12-28T13:06:03Z</time>
      </trkpt>
      <trkpt lat="48.09426" lon="-4.21262">
        <ele>149.62</ele>
        <time>2017-12-28T13:06:09Z</time>
      </trkpt>
      <trkpt lat="48.09422" lon="-4.21264">
        <ele>149.62</ele>
        <time>2017-12-28T13:06:12Z</time>
      </trkpt>
      <trkpt lat="48.09415" lon="-4.21266">
        <ele>150.1</ele>
        <time>2017-12-28T13:06:17Z</time>
      </trkpt>
      <trkpt lat="48.09399" lon="-4.21273">
        <ele>152.51</ele>
        <time>2017-12-28T13:06:30Z</time>
      </trkpt>
      <trkpt lat="48.09389" lon="-4.21286">
        <ele>152.03</ele>
        <time>2017-12-28T13:06:43Z</time>
      </trkpt>
      <trkpt lat="48.09379" lon="-4.21307">
        <ele>151.54</ele>
        <time>2017-12-28T13:06:59Z</time>
      </trkpt>
      <trkpt lat="48.09366" lon="-4.21311">
        <ele>153.47</ele>
        <time>2017-12-28T13:07:12Z</time>
      </trkpt>
      <trkpt lat="48.09365" lon="-4.21311">
        <ele>153.95</ele>
        <time>2017-12-28T13:07:14Z</time>
      </trkpt>
      <trkpt lat="48.09342" lon="-4.21316">
        <ele>153.95</ele>
        <time>2017-12-28T13:07:33Z</time>
      </trkpt>
      <trkpt lat="48.09333" lon="-4.21318">
        <ele>153.47</ele>
        <time>2017-12-28T13:07:40Z</time>
      </trkpt>
      <trkpt lat="48.09316" lon="-4.21326">
        <ele>151.06</ele>
        <time>2017-12-28T13:07:56Z</time>
      </trkpt>
      <trkpt lat="48.09306" lon="-4.21336">
        <ele>152.03</ele>
        <time>2017-12-28T13:08:03Z</time>
      </trkpt>
      <trkpt lat="48.09303" lon="-4.2134">
        <ele>152.99</ele>
        <time>2017-12-28T13:08:07Z</time>
      </trkpt>
      <trkpt lat="48.09308" lon="-4.21354">
        <ele>149.62</ele>
        <time>2017-12-28T13:08:19Z</time>
      </trkpt>
      <trkpt lat="48.09313" lon="-4.21366">
        <ele>147.22</ele>
        <time>2017-12-28T13:08:29Z</time>
      </trkpt>
      <trkpt lat="48.09317" lon="-4.21387">
        <ele>146.74</ele>
        <time>2017-12-28T13:08:40Z</time>
      </trkpt>
      <trkpt lat="48.09319" lon="-4.21399">
        <ele>145.78</ele>
        <time>2017-12-28T13:08:47Z</time>
      </trkpt>
      <trkpt lat="48.0932" lon="-4.21408">
        <ele>145.78</ele>
        <time>2017-12-28T13:08:51Z</time>
      </trkpt>
      <trkpt lat="48.0932" lon="-4.21428">
        <ele>142.41</ele>
        <time>2017-12-28T13:09:03Z</time>
      </trkpt>
      <trkpt lat="48.09321" lon="-4.2143">
        <ele>140.97</ele>
        <time>2017-12-28T13:09:05Z</time>
      </trkpt>
      <trkpt lat="48.09326" lon="-4.21442">
        <ele>133.28</ele>
        <time>2017-12-28T13:09:17Z</time>
      </trkpt>
      <trkpt lat="48.09327" lon="-4.21461">
        <ele>128.47</ele>
        <time>2017-12-28T13:09:29Z</time>
      </trkpt>
      <trkpt lat="48.09326" lon="-4.21469">
        <ele>126.55</ele>
        <time>2017-12-28T13:09:32Z</time>
      </trkpt>
      <trkpt lat="48.09322" lon="-4.21502">
        <ele>124.63</ele>
        <time>2017-12-28T13:09:46Z</time>
      </trkpt>
      <trkpt lat="48.0932" lon="-4.21524">
        <ele>122.22</ele>
        <time>2017-12-28T13:09:56Z</time>
      </trkpt>
      <trkpt lat="48.0932" lon="-4.21539">
        <ele>122.71</ele>
        <time>2017-12-28T13:10:04Z</time>
      </trkpt>
      <trkpt lat="48.09322" lon="-4.2155">
        <ele>120.78</ele>
        <time>2017-12-28T13:10:15Z</time>
      </trkpt>
      <trkpt lat="48.0932" lon="-4.21574">
        <ele>120.3</ele>
        <time>2017-12-28T13:10:25Z</time>
      </trkpt>
      <trkpt lat="48.09313" lon="-4.21603">
        <ele>124.15</ele>
        <time>2017-12-28T13:10:37Z</time>
      </trkpt>
      <trkpt lat="48.09307" lon="-4.21622">
        <ele>126.55</ele>
        <time>2017-12-28T13:10:47Z</time>
      </trkpt>
      <trkpt lat="48.09303" lon="-4.2164">
        <ele>127.99</ele>
        <time>2017-12-28T13:10:58Z</time>
      </trkpt>
      <trkpt lat="48.09304" lon="-4.21652">
        <ele>125.11</ele>
        <time>2017-12-28T13:11:07Z</time>
      </trkpt>
      <trkpt lat="48.09309" lon="-4.21672">
        <ele>125.59</ele>
        <time>2017-12-28T13:11:17Z</time>
      </trkpt>
      <trkpt lat="48.09314" lon="-4.21688">
        <ele>123.67</ele>
        <time>2017-12-28T13:11:26Z</time>
      </trkpt>
      <trkpt lat="48.09316" lon="-4.21695">
        <ele>124.15</ele>
        <time>2017-12-28T13:11:29Z</time>
      </trkpt>
      <trkpt lat="48.09324" lon="-4.21711">
        <ele>120.3</ele>
        <time>2017-12-28T13:11:42Z</time>
      </trkpt>
      <trkpt lat="48.09331" lon="-4.21724">
        <ele>115.98</ele>
        <time>2017-12-28T13:11:50Z</time>
      </trkpt>
      <trkpt lat="48.09331" lon="-4.21757">
        <ele>122.22</ele>
        <time>2017-12-28T13:12:03Z</time>
      </trkpt>
      <trkpt lat="48.09334" lon="-4.21781">
        <ele>123.19</ele>
        <time>2017-12-28T13:12:16Z</time>
      </trkpt>
      <trkpt lat="48.09335" lon="-4.21788">
        <ele>123.67</ele>
        <time>2017-12-28T13:12:20Z</time>
      </trkpt>
      <trkpt lat="48.09338" lon="-4.2181">
        <ele>125.11</ele>
        <time>2017-12-28T13:12:33Z</time>
      </trkpt>
      <trkpt lat="48.0934" lon="-4.21835">
        <ele>125.59</ele>
        <time>2017-12-28T13:12:46Z</time>
      </trkpt>
      <trkpt lat="48.09345" lon="-4.21861">
        <ele>123.67</ele>
        <time>2017-12-28T13:13:01Z</time>
      </trkpt>
      <trkpt lat="48.09347" lon="-4.21865">
        <ele>122.71</ele>
        <time>2017-12-28T13:13:04Z</time>
      </trkpt>
      <trkpt lat="48.0935" lon="-4.21893">
        <ele>123.67</ele>
        <time>2017-12-28T13:13:16Z</time>
      </trkpt>
      <trkpt lat="48.09353" lon="-4.21922">
        <ele>127.99</ele>
        <time>2017-12-28T13:13:29Z</time>
      </trkpt>
      <trkpt lat="48.09355" lon="-4.21945">
        <ele>132.8</ele>
        <time>2017-12-28T13:13:40Z</time>
      </trkpt>
      <trkpt lat="48.09348" lon="-4.21967">
        <ele>134.24</ele>
        <time>2017-12-28T13:13:52Z</time>
      </trkpt>
      <trkpt lat="48.09333" lon="-4.21995">
        <ele>140.97</ele>
        <time>2017-12-28T13:14:07Z</time>
      </trkpt>
      <trkpt lat="48.09321" lon="-4.22018">
        <ele>143.85</ele>
        <time>2017-12-28T13:14:21Z</time>
      </trkpt>
      <trkpt lat="48.09311" lon="-4.22033">
        <ele>145.78</ele>
        <time>2017-12-28T13:14:31Z</time>
      </trkpt>
      <trkpt lat="48.093" lon="-4.22053">
        <ele>146.26</ele>
        <time>2017-12-28T13:14:45Z</time>
      </trkpt>
      <trkpt lat="48.09291" lon="-4.22073">
        <ele>143.85</ele>
        <time>2017-12-28T13:14:57Z</time>
      </trkpt>
      <trkpt lat="48.09283" lon="-4.22084">
        <ele>141.45</ele>
        <time>2017-12-28T13:15:06Z</time>
      </trkpt>
      <trkpt lat="48.09281" lon="-4.22089">
        <ele>140.49</ele>
        <time>2017-12-28T13:15:09Z</time>
      </trkpt>
      <trkpt lat="48.09278" lon="-4.22093">
        <ele>139.53</ele>
        <time>2017-12-28T13:15:12Z</time>
      </trkpt>
      <trkpt lat="48.09276" lon="-4.22094">
        <ele>138.57</ele>
        <time>2017-12-28T13:15:14Z</time>
      </trkpt>
      <trkpt lat="48.09267" lon="-4.22109">
        <ele>134.72</ele>
        <time>2017-12-28T13:15:26Z</time>
      </trkpt>
      <trkpt lat="48.09265" lon="-4.22115">
        <ele>132.8</ele>
        <time>2017-12-28T13:15:30Z</time>
      </trkpt>
      <trkpt lat="48.09255" lon="-4.22131">
        <ele>130.4</ele>
        <time>2017-12-28T13:15:43Z</time>
      </trkpt>
      <trkpt lat="48.09249" lon="-4.22136">
        <ele>131.84</ele>
        <time>2017-12-28T13:15:48Z</time>
      </trkpt>
      <trkpt lat="48.09243" lon="-4.22142">
        <ele>137.61</ele>
        <time>2017-12-28T13:16:02Z</time>
      </trkpt>
      <trkpt lat="48.09244" lon="-4.22143">
        <ele>142.41</ele>
        <time>2017-12-28T13:16:30Z</time>
      </trkpt>
      <trkpt lat="48.09241" lon="-4.22145">
        <ele>145.3</ele>
        <time>2017-12-28T13:16:53Z</time>
      </trkpt>
      <trkpt lat="48.09242" lon="-4.2215">
        <ele>146.74</ele>
        <time>2017-12-28T13:17:02Z</time>
      </trkpt>
      <trkpt lat="48.09236" lon="-4.22161">
        <ele>147.7</ele>
        <time>2017-12-28T13:17:12Z</time>
      </trkpt>
      <trkpt lat="48.09228" lon="-4.22172">
        <ele>147.22</ele>
        <time>2017-12-28T13:17:21Z</time>
      </trkpt>
      <trkpt lat="48.09224" lon="-4.22177">
        <ele>147.22</ele>
        <time>2017-12-28T13:17:25Z</time>
      </trkpt>
      <trkpt lat="48.09215" lon="-4.22188">
        <ele>146.74</ele>
        <time>2017-12-28T13:17:36Z</time>
      </trkpt>
      <trkpt lat="48.09211" lon="-4.22191">
        <ele>147.7</ele>
        <time>2017-12-28T13:17:40Z</time>
      </trkpt>
      <trkpt lat="48.09207" lon="-4.22198">
        <ele>147.7</ele>
        <time>2017-12-28T13:17:45Z</time>
      </trkpt>
      <trkpt lat="48.09203" lon="-4.22203">
        <ele>148.18</ele>
        <time>2017-12-28T13:17:49Z</time>
      </trkpt>
      <trkpt lat="48.0919" lon="-4.22226">
        <ele>147.7</ele>
        <time>2017-12-28T13:18:04Z</time>
      </trkpt>
      <trkpt lat="48.09177" lon="-4.22245">
        <ele>150.58</ele>
        <time>2017-12-28T13:18:17Z</time>
      </trkpt>
      <trkpt lat="48.09166" lon="-4.22264">
        <ele>151.54</ele>
        <time>2017-12-28T13:18:29Z</time>
      </trkpt>
      <trkpt lat="48.09162" lon="-4.22269">
        <ele>151.54</ele>
        <time>2017-12-28T13:18:33Z</time>
      </trkpt>
      <trkpt lat="48.09146" lon="-4.22288">
        <ele>150.58</ele>
        <time>2017-12-28T13:18:48Z</time>
      </trkpt>
      <trkpt lat="48.09132" lon="-4.22306">
        <ele>148.18</ele>
        <time>2017-12-28T13:19:03Z</time>
      </trkpt>
      <trkpt lat="48.09121" lon="-4.2232">
        <ele>148.66</ele>
        <time>2017-12-28T13:19:13Z</time>
      </trkpt>
      <trkpt lat="48.09108" lon="-4.22337">
        <ele>146.74</ele>
        <time>2017-12-28T13:19:27Z</time>
      </trkpt>
      <trkpt lat="48.09089" lon="-4.22356">
        <ele>145.78</ele>
        <time>2017-12-28T13:19:43Z</time>
      </trkpt>
      <trkpt lat="48.09074" lon="-4.22374">
        <ele>144.34</ele>
        <time>2017-12-28T13:19:58Z</time>
      </trkpt>
      <trkpt lat="48.09064" lon="-4.22387">
        <ele>142.89</ele>
        <time>2017-12-28T13:20:10Z</time>
      </trkpt>
      <trkpt lat="48.0906" lon="-4.22394">
        <ele>142.41</ele>
        <time>2017-12-28T13:20:16Z</time>
      </trkpt>
      <trkpt lat="48.09057" lon="-4.22398">
        <ele>142.89</ele>
        <time>2017-12-28T13:20:19Z</time>
      </trkpt>
      <trkpt lat="48.09053" lon="-4.22402">
        <ele>143.37</ele>
        <time>2017-12-28T13:20:23Z</time>
      </trkpt>
      <trkpt lat="48.09042" lon="-4.22422">
        <ele>144.34</ele>
        <time>2017-12-28T13:20:38Z</time>
      </trkpt>
      <trkpt lat="48.09042" lon="-4.22423">
        <ele>144.34</ele>
        <time>2017-12-28T13:20:39Z</time>
      </trkpt>
      <trkpt lat="48.09038" lon="-4.2243">
        <ele>145.3</ele>
        <time>2017-12-28T13:20:43Z</time>
      </trkpt>
      <trkpt lat="48.09031" lon="-4.22446">
        <ele>146.74</ele>
        <time>2017-12-28T13:20:52Z</time>
      </trkpt>
      <trkpt lat="48.09027" lon="-4.22455">
        <ele>147.22</ele>
        <time>2017-12-28T13:20:57Z</time>
      </trkpt>
      <trkpt lat="48.09017" lon="-4.22482">
        <ele>146.74</ele>
        <time>2017-12-28T13:21:10Z</time>
      </trkpt>
      <trkpt lat="48.09011" lon="-4.22501">
        <ele>140.97</ele>
        <time>2017-12-28T13:21:22Z</time>
      </trkpt>
      <trkpt lat="48.09007" lon="-4.22519">
        <ele>131.84</ele>
        <time>2017-12-28T13:21:37Z</time>
      </trkpt>
      <trkpt lat="48.09001" lon="-4.22536">
        <ele>127.03</ele>
        <time>2017-12-28T13:21:48Z</time>
      </trkpt>
      <trkpt lat="48.08996" lon="-4.2255">
        <ele>125.11</ele>
        <time>2017-12-28T13:21:57Z</time>
      </trkpt>
      <trkpt lat="48.08991" lon="-4.22565">
        <ele>120.3</ele>
        <time>2017-12-28T13:22:08Z</time>
      </trkpt>
      <trkpt lat="48.08979" lon="-4.2259">
        <ele>121.74</ele>
        <time>2017-12-28T13:22:23Z</time>
      </trkpt>
      <trkpt lat="48.08975" lon="-4.22596">
        <ele>122.71</ele>
        <time>2017-12-28T13:22:27Z</time>
      </trkpt>
      <trkpt lat="48.08965" lon="-4.22618">
        <ele>124.15</ele>
        <time>2017-12-28T13:22:41Z</time>
      </trkpt>
      <trkpt lat="48.08955" lon="-4.22641">
        <ele>125.11</ele>
        <time>2017-12-28T13:22:54Z</time>
      </trkpt>
      <trkpt lat="48.08948" lon="-4.22663">
        <ele>128.47</ele>
        <time>2017-12-28T13:23:05Z</time>
      </trkpt>
      <trkpt lat="48.08942" lon="-4.22681">
        <ele>128.47</ele>
        <time>2017-12-28T13:23:15Z</time>
      </trkpt>
      <trkpt lat="48.08937" lon="-4.22698">
        <ele>127.51</ele>
        <time>2017-12-28T13:23:26Z</time>
      </trkpt>
      <trkpt lat="48.08935" lon="-4.22701">
        <ele>127.99</ele>
        <time>2017-12-28T13:23:28Z</time>
      </trkpt>
      <trkpt lat="48.08932" lon="-4.2271">
        <ele>128.47</ele>
        <time>2017-12-28T13:23:33Z</time>
      </trkpt>
      <trkpt lat="48.08929" lon="-4.22728">
        <ele>127.99</ele>
        <time>2017-12-28T13:23:44Z</time>
      </trkpt>
      <trkpt lat="48.0892" lon="-4.22747">
        <ele>125.59</ele>
        <time>2017-12-28T13:23:57Z</time>
      </trkpt>
      <trkpt lat="48.08915" lon="-4.22762">
        <ele>121.74</ele>
        <time>2017-12-28T13:24:09Z</time>
      </trkpt>
      <trkpt lat="48.08906" lon="-4.22776">
        <ele>120.3</ele>
        <time>2017-12-28T13:24:20Z</time>
      </trkpt>
      <trkpt lat="48.08898" lon="-4.22795">
        <ele>116.94</ele>
        <time>2017-12-28T13:24:31Z</time>
      </trkpt>
      <trkpt lat="48.08896" lon="-4.228">
        <ele>116.94</ele>
        <time>2017-12-28T13:24:34Z</time>
      </trkpt>
      <trkpt lat="48.08887" lon="-4.2283">
        <ele>124.15</ele>
        <time>2017-12-28T13:24:50Z</time>
      </trkpt>
      <trkpt lat="48.08878" lon="-4.22851">
        <ele>123.67</ele>
        <time>2017-12-28T13:25:05Z</time>
      </trkpt>
      <trkpt lat="48.08873" lon="-4.22863">
        <ele>124.63</ele>
        <time>2017-12-28T13:25:15Z</time>
      </trkpt>
      <trkpt lat="48.08861" lon="-4.22884">
        <ele>124.63</ele>
        <time>2017-12-28T13:25:30Z</time>
      </trkpt>
      <trkpt lat="48.0886" lon="-4.22885">
        <ele>124.15</ele>
        <time>2017-12-28T13:25:32Z</time>
      </trkpt>
      <trkpt lat="48.08853" lon="-4.22902">
        <ele>124.63</ele>
        <time>2017-12-28T13:25:44Z</time>
      </trkpt>
      <trkpt lat="48.08846" lon="-4.22921">
        <ele>126.55</ele>
        <time>2017-12-28T13:25:59Z</time>
      </trkpt>
      <trkpt lat="48.08848" lon="-4.22926">
        <ele>127.03</ele>
        <time>2017-12-28T13:26:03Z</time>
      </trkpt>
      <trkpt lat="48.0885" lon="-4.22927">
        <ele>126.55</ele>
        <time>2017-12-28T13:26:05Z</time>
      </trkpt>
      <trkpt lat="48.08856" lon="-4.22935">
        <ele>124.63</ele>
        <time>2017-12-28T13:26:17Z</time>
      </trkpt>
      <trkpt lat="48.08862" lon="-4.22948">
        <ele>121.26</ele>
        <time>2017-12-28T13:26:30Z</time>
      </trkpt>
      <trkpt lat="48.0887" lon="-4.22957">
        <ele>122.71</ele>
        <time>2017-12-28T13:26:41Z</time>
      </trkpt>
      <trkpt lat="48.08875" lon="-4.22971">
        <ele>121.74</ele>
        <time>2017-12-28T13:26:55Z</time>
      </trkpt>
      <trkpt lat="48.08876" lon="-4.22989">
        <ele>121.74</ele>
        <time>2017-12-28T13:27:05Z</time>
      </trkpt>
      <trkpt lat="48.08878" lon="-4.23001">
        <ele>127.03</ele>
        <time>2017-12-28T13:27:17Z</time>
      </trkpt>
      <trkpt lat="48.08876" lon="-4.2301">
        <ele>124.63</ele>
        <time>2017-12-28T13:27:28Z</time>
      </trkpt>
      <trkpt lat="48.08873" lon="-4.23022">
        <ele>125.59</ele>
        <time>2017-12-28T13:27:40Z</time>
      </trkpt>
      <trkpt lat="48.08867" lon="-4.23041">
        <ele>123.67</ele>
        <time>2017-12-28T13:27:53Z</time>
      </trkpt>
      <trkpt lat="48.0886" lon="-4.23061">
        <ele>121.74</ele>
        <time>2017-12-28T13:28:05Z</time>
      </trkpt>
      <trkpt lat="48.08852" lon="-4.2308">
        <ele>120.78</ele>
        <time>2017-12-28T13:28:16Z</time>
      </trkpt>
      <trkpt lat="48.08845" lon="-4.23096">
        <ele>118.38</ele>
        <time>2017-12-28T13:28:28Z</time>
      </trkpt>
      <trkpt lat="48.08845" lon="-4.23096">
        <ele>118.38</ele>
        <time>2017-12-28T13:28:29Z</time>
      </trkpt>
      <trkpt lat="48.08843" lon="-4.23106">
        <ele>119.34</ele>
        <time>2017-12-28T13:28:34Z</time>
      </trkpt>
      <trkpt lat="48.08833" lon="-4.23137">
        <ele>119.82</ele>
        <time>2017-12-28T13:28:49Z</time>
      </trkpt>
      <trkpt lat="48.08828" lon="-4.23152">
        <ele>121.74</ele>
        <time>2017-12-28T13:29:00Z</time>
      </trkpt>
      <trkpt lat="48.08821" lon="-4.23173">
        <ele>122.71</ele>
        <time>2017-12-28T13:29:10Z</time>
      </trkpt>
      <trkpt lat="48.08811" lon="-4.23196">
        <ele>125.11</ele>
        <time>2017-12-28T13:29:24Z</time>
      </trkpt>
      <trkpt lat="48.08807" lon="-4.2321">
        <ele>122.71</ele>
        <time>2017-12-28T13:29:36Z</time>
      </trkpt>
      <trkpt lat="48.08803" lon="-4.23238">
        <ele>121.26</ele>
        <time>2017-12-28T13:29:49Z</time>
      </trkpt>
      <trkpt lat="48.08808" lon="-4.23259">
        <ele>120.78</ele>
        <time>2017-12-28T13:30:02Z</time>
      </trkpt>
      <trkpt lat="48.08809" lon="-4.23261">
        <ele>121.26</ele>
        <time>2017-12-28T13:30:05Z</time>
      </trkpt>
      <trkpt lat="48.08813" lon="-4.23283">
        <ele>121.26</ele>
        <time>2017-12-28T13:30:15Z</time>
      </trkpt>
      <trkpt lat="48.08818" lon="-4.23302">
        <ele>121.26</ele>
        <time>2017-12-28T13:30:26Z</time>
      </trkpt>
      <trkpt lat="48.08821" lon="-4.23322">
        <ele>121.26</ele>
        <time>2017-12-28T13:30:37Z</time>
      </trkpt>
      <trkpt lat="48.08823" lon="-4.23345">
        <ele>123.67</ele>
        <time>2017-12-28T13:30:48Z</time>
      </trkpt>
      <trkpt lat="48.08826" lon="-4.23353">
        <ele>123.67</ele>
        <time>2017-12-28T13:30:52Z</time>
      </trkpt>
      <trkpt lat="48.08829" lon="-4.23377">
        <ele>125.59</ele>
        <time>2017-12-28T13:31:06Z</time>
      </trkpt>
      <trkpt lat="48.0883" lon="-4.23391">
        <ele>127.03</ele>
        <time>2017-12-28T13:31:16Z</time>
      </trkpt>
      <trkpt lat="48.08837" lon="-4.23403">
        <ele>123.67</ele>
        <time>2017-12-28T13:31:28Z</time>
      </trkpt>
      <trkpt lat="48.08842" lon="-4.23418">
        <ele>122.71</ele>
        <time>2017-12-28T13:31:38Z</time>
      </trkpt>
      <trkpt lat="48.08846" lon="-4.23437">
        <ele>120.78</ele>
        <time>2017-12-28T13:31:47Z</time>
      </trkpt>
      <trkpt lat="48.08847" lon="-4.23449">
        <ele>121.26</ele>
        <time>2017-12-28T13:31:51Z</time>
      </trkpt>
      <trkpt lat="48.0885" lon="-4.23476">
        <ele>124.63</ele>
        <time>2017-12-28T13:32:04Z</time>
      </trkpt>
      <trkpt lat="48.08851" lon="-4.23478">
        <ele>125.11</ele>
        <time>2017-12-28T13:32:05Z</time>
      </trkpt>
      <trkpt lat="48.0885" lon="-4.23503">
        <ele>127.51</ele>
        <time>2017-12-28T13:32:16Z</time>
      </trkpt>
      <trkpt lat="48.08851" lon="-4.23512">
        <ele>129.92</ele>
        <time>2017-12-28T13:32:20Z</time>
      </trkpt>
      <trkpt lat="48.08855" lon="-4.23531">
        <ele>127.51</ele>
        <time>2017-12-28T13:32:32Z</time>
      </trkpt>
      <trkpt lat="48.08859" lon="-4.23548">
        <ele>124.63</ele>
        <time>2017-12-28T13:32:43Z</time>
      </trkpt>
      <trkpt lat="48.08859" lon="-4.23551">
        <ele>124.63</ele>
        <time>2017-12-28T13:32:47Z</time>
      </trkpt>
      <trkpt lat="48.08859" lon="-4.23567">
        <ele>124.63</ele>
        <time>2017-12-28T13:32:56Z</time>
      </trkpt>
      <trkpt lat="48.08858" lon="-4.23577">
        <ele>124.63</ele>
        <time>2017-12-28T13:33:06Z</time>
      </trkpt>
      <trkpt lat="48.08861" lon="-4.23606">
        <ele>123.19</ele>
        <time>2017-12-28T13:33:17Z</time>
      </trkpt>
      <trkpt lat="48.08861" lon="-4.23611">
        <ele>123.19</ele>
        <time>2017-12-28T13:33:19Z</time>
      </trkpt>
      <trkpt lat="48.0886" lon="-4.23626">
        <ele>124.63</ele>
        <time>2017-12-28T13:33:25Z</time>
      </trkpt>
      <trkpt lat="48.08861" lon="-4.23646">
        <ele>126.55</ele>
        <time>2017-12-28T13:33:36Z</time>
      </trkpt>
      <trkpt lat="48.08861" lon="-4.23667">
        <ele>127.03</ele>
        <time>2017-12-28T13:33:48Z</time>
      </trkpt>
      <trkpt lat="48.08862" lon="-4.23668">
        <ele>126.55</ele>
        <time>2017-12-28T13:33:49Z</time>
      </trkpt>
      <trkpt lat="48.08865" lon="-4.23682">
        <ele>125.59</ele>
        <time>2017-12-28T13:34:00Z</time>
      </trkpt>
      <trkpt lat="48.0887" lon="-4.23698">
        <ele>124.15</ele>
        <time>2017-12-28T13:34:10Z</time>
      </trkpt>
      <trkpt lat="48.08871" lon="-4.2372">
        <ele>125.11</ele>
        <time>2017-12-28T13:34:18Z</time>
      </trkpt>
      <trkpt lat="48.08874" lon="-4.23731">
        <ele>124.63</ele>
        <time>2017-12-28T13:34:24Z</time>
      </trkpt>
      <trkpt lat="48.08881" lon="-4.23747">
        <ele>123.19</ele>
        <time>2017-12-28T13:34:37Z</time>
      </trkpt>
      <trkpt lat="48.08882" lon="-4.23764">
        <ele>120.3</ele>
        <time>2017-12-28T13:34:49Z</time>
      </trkpt>
      <trkpt lat="48.08884" lon="-4.23775">
        <ele>120.3</ele>
        <time>2017-12-28T13:34:53Z</time>
      </trkpt>
      <trkpt lat="48.08896" lon="-4.23795">
        <ele>119.34</ele>
        <time>2017-12-28T13:35:05Z</time>
      </trkpt>
      <trkpt lat="48.08903" lon="-4.23807">
        <ele>118.38</ele>
        <time>2017-12-28T13:35:13Z</time>
      </trkpt>
      <trkpt lat="48.08906" lon="-4.23825">
        <ele>120.78</ele>
        <time>2017-12-28T13:35:24Z</time>
      </trkpt>
      <trkpt lat="48.08908" lon="-4.23831">
        <ele>122.22</ele>
        <time>2017-12-28T13:35:30Z</time>
      </trkpt>
      <trkpt lat="48.08919" lon="-4.23844">
        <ele>124.15</ele>
        <time>2017-12-28T13:35:40Z</time>
      </trkpt>
      <trkpt lat="48.08921" lon="-4.23846">
        <ele>124.63</ele>
        <time>2017-12-28T13:35:42Z</time>
      </trkpt>
      <trkpt lat="48.08937" lon="-4.23857">
        <ele>120.78</ele>
        <time>2017-12-28T13:35:55Z</time>
      </trkpt>
      <trkpt lat="48.08938" lon="-4.23862">
        <ele>119.82</ele>
        <time>2017-12-28T13:35:58Z</time>
      </trkpt>
      <trkpt lat="48.08957" lon="-4.23873">
        <ele>120.78</ele>
        <time>2017-12-28T13:36:10Z</time>
      </trkpt>
      <trkpt lat="48.0896" lon="-4.23877">
        <ele>120.78</ele>
        <time>2017-12-28T13:36:13Z</time>
      </trkpt>
      <trkpt lat="48.08969" lon="-4.23894">
        <ele>119.34</ele>
        <time>2017-12-28T13:36:26Z</time>
      </trkpt>
      <trkpt lat="48.0897" lon="-4.23898">
        <ele>119.34</ele>
        <time>2017-12-28T13:36:28Z</time>
      </trkpt>
      <trkpt lat="48.08971" lon="-4.23922">
        <ele>119.82</ele>
        <time>2017-12-28T13:36:40Z</time>
      </trkpt>
      <trkpt lat="48.08975" lon="-4.23938">
        <ele>123.67</ele>
        <time>2017-12-28T13:36:49Z</time>
      </trkpt>
      <trkpt lat="48.08968" lon="-4.23958">
        <ele>123.67</ele>
        <time>2017-12-28T13:37:02Z</time>
      </trkpt>
      <trkpt lat="48.08967" lon="-4.2396">
        <ele>123.19</ele>
        <time>2017-12-28T13:37:04Z</time>
      </trkpt>
      <trkpt lat="48.08963" lon="-4.23986">
        <ele>122.71</ele>
        <time>2017-12-28T13:37:16Z</time>
      </trkpt>
      <trkpt lat="48.08962" lon="-4.2399">
        <ele>122.22</ele>
        <time>2017-12-28T13:37:19Z</time>
      </trkpt>
      <trkpt lat="48.08963" lon="-4.23996">
        <ele>121.74</ele>
        <time>2017-12-28T13:37:23Z</time>
      </trkpt>
      <trkpt lat="48.08965" lon="-4.2401">
        <ele>122.22</ele>
        <time>2017-12-28T13:37:34Z</time>
      </trkpt>
      <trkpt lat="48.08962" lon="-4.2402">
        <ele>122.71</ele>
        <time>2017-12-28T13:37:40Z</time>
      </trkpt>
      <trkpt lat="48.08961" lon="-4.24031">
        <ele>124.15</ele>
        <time>2017-12-28T13:37:46Z</time>
      </trkpt>
      <trkpt lat="48.08965" lon="-4.24061">
        <ele>128.47</ele>
        <time>2017-12-28T13:37:59Z</time>
      </trkpt>
      <trkpt lat="48.08969" lon="-4.24073">
        <ele>129.43</ele>
        <time>2017-12-28T13:38:11Z</time>
      </trkpt>
      <trkpt lat="48.08977" lon="-4.24087">
        <ele>124.15</ele>
        <time>2017-12-28T13:38:23Z</time>
      </trkpt>
      <trkpt lat="48.0898" lon="-4.24099">
        <ele>119.34</ele>
        <time>2017-12-28T13:38:33Z</time>
      </trkpt>
      <trkpt lat="48.08984" lon="-4.24108">
        <ele>116.94</ele>
        <time>2017-12-28T13:38:43Z</time>
      </trkpt>
      <trkpt lat="48.08997" lon="-4.24123">
        <ele>117.42</ele>
        <time>2017-12-28T13:38:52Z</time>
      </trkpt>
      <trkpt lat="48.09007" lon="-4.24143">
        <ele>117.9</ele>
        <time>2017-12-28T13:39:05Z</time>
      </trkpt>
      <trkpt lat="48.09015" lon="-4.24157">
        <ele>116.46</ele>
        <time>2017-12-28T13:39:17Z</time>
      </trkpt>
      <trkpt lat="48.09023" lon="-4.24176">
        <ele>114.05</ele>
        <time>2017-12-28T13:39:30Z</time>
      </trkpt>
      <trkpt lat="48.09028" lon="-4.24183">
        <ele>114.53</ele>
        <time>2017-12-28T13:39:35Z</time>
      </trkpt>
      <trkpt lat="48.09031" lon="-4.24196">
        <ele>115.01</ele>
        <time>2017-12-28T13:39:40Z</time>
      </trkpt>
      <trkpt lat="48.09042" lon="-4.24204">
        <ele>111.17</ele>
        <time>2017-12-28T13:39:51Z</time>
      </trkpt>
      <trkpt lat="48.09043" lon="-4.24203">
        <ele>111.65</ele>
        <time>2017-12-28T13:40:04Z</time>
      </trkpt>
      <trkpt lat="48.09041" lon="-4.24202">
        <ele>110.69</ele>
        <time>2017-12-28T13:40:07Z</time>
      </trkpt>
      <trkpt lat="48.09038" lon="-4.24206">
        <ele>110.21</ele>
        <time>2017-12-28T13:40:10Z</time>
      </trkpt>
      <trkpt lat="48.09029" lon="-4.24214">
        <ele>105.4</ele>
        <time>2017-12-28T13:40:20Z</time>
      </trkpt>
      <trkpt lat="48.09021" lon="-4.24226">
        <ele>101.08</ele>
        <time>2017-12-28T13:40:31Z</time>
      </trkpt>
      <trkpt lat="48.09015" lon="-4.24244">
        <ele>102.04</ele>
        <time>2017-12-28T13:40:42Z</time>
      </trkpt>
      <trkpt lat="48.09008" lon="-4.24259">
        <ele>99.63</ele>
        <time>2017-12-28T13:40:53Z</time>
      </trkpt>
      <trkpt lat="48.08999" lon="-4.24271">
        <ele>98.67</ele>
        <time>2017-12-28T13:41:04Z</time>
      </trkpt>
      <trkpt lat="48.0898" lon="-4.2428">
        <ele>101.08</ele>
        <time>2017-12-28T13:41:18Z</time>
      </trkpt>
      <trkpt lat="48.0898" lon="-4.2428">
        <ele>101.08</ele>
        <time>2017-12-28T13:41:19Z</time>
      </trkpt>
      <trkpt lat="48.08978" lon="-4.24284">
        <ele>100.6</ele>
        <time>2017-12-28T13:41:23Z</time>
      </trkpt>
      <trkpt lat="48.08968" lon="-4.2429">
        <ele>100.11</ele>
        <time>2017-12-28T13:41:34Z</time>
      </trkpt>
      <trkpt lat="48.08948" lon="-4.24299">
        <ele>101.08</ele>
        <time>2017-12-28T13:41:45Z</time>
      </trkpt>
      <trkpt lat="48.08946" lon="-4.24301">
        <ele>101.56</ele>
        <time>2017-12-28T13:41:47Z</time>
      </trkpt>
      <trkpt lat="48.0894" lon="-4.24304">
        <ele>101.08</ele>
        <time>2017-12-28T13:41:52Z</time>
      </trkpt>
      <trkpt lat="48.0893" lon="-4.24313">
        <ele>100.11</ele>
        <time>2017-12-28T13:42:04Z</time>
      </trkpt>
      <trkpt lat="48.08929" lon="-4.24314">
        <ele>99.63</ele>
        <time>2017-12-28T13:42:05Z</time>
      </trkpt>
      <trkpt lat="48.08915" lon="-4.24319">
        <ele>98.67</ele>
        <time>2017-12-28T13:42:16Z</time>
      </trkpt>
      <trkpt lat="48.08903" lon="-4.24323">
        <ele>99.15</ele>
        <time>2017-12-28T13:42:26Z</time>
      </trkpt>
      <trkpt lat="48.08891" lon="-4.2433">
        <ele>98.19</ele>
        <time>2017-12-28T13:42:36Z</time>
      </trkpt>
      <trkpt lat="48.08879" lon="-4.24335">
        <ele>96.75</ele>
        <time>2017-12-28T13:42:48Z</time>
      </trkpt>
      <trkpt lat="48.08866" lon="-4.2434">
        <ele>97.23</ele>
        <time>2017-12-28T13:43:00Z</time>
      </trkpt>
      <trkpt lat="48.08852" lon="-4.24345">
        <ele>96.27</ele>
        <time>2017-12-28T13:43:09Z</time>
      </trkpt>
      <trkpt lat="48.08848" lon="-4.24346">
        <ele>96.75</ele>
        <time>2017-12-28T13:43:12Z</time>
      </trkpt>
      <trkpt lat="48.08832" lon="-4.24347">
        <ele>99.15</ele>
        <time>2017-12-28T13:43:25Z</time>
      </trkpt>
      <trkpt lat="48.08814" lon="-4.2435">
        <ele>100.11</ele>
        <time>2017-12-28T13:43:36Z</time>
      </trkpt>
      <trkpt lat="48.088" lon="-4.24357">
        <ele>101.56</ele>
        <time>2017-12-28T13:43:48Z</time>
      </trkpt>
      <trkpt lat="48.08789" lon="-4.24362">
        <ele>106.36</ele>
        <time>2017-12-28T13:43:56Z</time>
      </trkpt>
      <trkpt lat="48.08776" lon="-4.24368">
        <ele>113.57</ele>
        <time>2017-12-28T13:44:07Z</time>
      </trkpt>
      <trkpt lat="48.08773" lon="-4.24374">
        <ele>114.53</ele>
        <time>2017-12-28T13:44:11Z</time>
      </trkpt>
      <trkpt lat="48.08768" lon="-4.24376">
        <ele>116.94</ele>
        <time>2017-12-28T13:44:14Z</time>
      </trkpt>
      <trkpt lat="48.08758" lon="-4.24382">
        <ele>120.3</ele>
        <time>2017-12-28T13:44:22Z</time>
      </trkpt>
      <trkpt lat="48.08743" lon="-4.24384">
        <ele>118.86</ele>
        <time>2017-12-28T13:44:34Z</time>
      </trkpt>
      <trkpt lat="48.08741" lon="-4.24385">
        <ele>118.86</ele>
        <time>2017-12-28T13:44:35Z</time>
      </trkpt>
      <trkpt lat="48.08724" lon="-4.24392">
        <ele>115.98</ele>
        <time>2017-12-28T13:44:49Z</time>
      </trkpt>
      <trkpt lat="48.08715" lon="-4.24396">
        <ele>110.21</ele>
        <time>2017-12-28T13:44:57Z</time>
      </trkpt>
      <trkpt lat="48.0871" lon="-4.24406">
        <ele>108.29</ele>
        <time>2017-12-28T13:45:05Z</time>
      </trkpt>
      <trkpt lat="48.08699" lon="-4.24419">
        <ele>106.36</ele>
        <time>2017-12-28T13:45:17Z</time>
      </trkpt>
      <trkpt lat="48.08688" lon="-4.24439">
        <ele>110.69</ele>
        <time>2017-12-28T13:45:32Z</time>
      </trkpt>
      <trkpt lat="48.08688" lon="-4.24439">
        <ele>110.21</ele>
        <time>2017-12-28T13:45:50Z</time>
      </trkpt>
      <trkpt lat="48.08687" lon="-4.24439">
        <ele>110.21</ele>
        <time>2017-12-28T13:46:05Z</time>
      </trkpt>
      <trkpt lat="48.08686" lon="-4.24438">
        <ele>112.13</ele>
        <time>2017-12-28T13:46:25Z</time>
      </trkpt>
      <trkpt lat="48.08685" lon="-4.24432">
        <ele>111.65</ele>
        <time>2017-12-28T13:46:49Z</time>
      </trkpt>
      <trkpt lat="48.08684" lon="-4.2443">
        <ele>111.17</ele>
        <time>2017-12-28T13:47:10Z</time>
      </trkpt>
      <trkpt lat="48.08682" lon="-4.24438">
        <ele>109.73</ele>
        <time>2017-12-28T13:47:24Z</time>
      </trkpt>
      <trkpt lat="48.08677" lon="-4.24454">
        <ele>110.69</ele>
        <time>2017-12-28T13:47:34Z</time>
      </trkpt>
      <trkpt lat="48.08673" lon="-4.24471">
        <ele>109.73</ele>
        <time>2017-12-28T13:47:46Z</time>
      </trkpt>
      <trkpt lat="48.08667" lon="-4.24489">
        <ele>108.77</ele>
        <time>2017-12-28T13:47:57Z</time>
      </trkpt>
      <trkpt lat="48.08665" lon="-4.24506">
        <ele>105.88</ele>
        <time>2017-12-28T13:48:10Z</time>
      </trkpt>
      <trkpt lat="48.08659" lon="-4.24526">
        <ele>104.44</ele>
        <time>2017-12-28T13:48:22Z</time>
      </trkpt>
      <trkpt lat="48.08651" lon="-4.24552">
        <ele>104.44</ele>
        <time>2017-12-28T13:48:35Z</time>
      </trkpt>
      <trkpt lat="48.08646" lon="-4.24576">
        <ele>104.92</ele>
        <time>2017-12-28T13:48:47Z</time>
      </trkpt>
      <trkpt lat="48.08638" lon="-4.24606">
        <ele>106.84</ele>
        <time>2017-12-28T13:49:01Z</time>
      </trkpt>
      <trkpt lat="48.08635" lon="-4.24616">
        <ele>106.84</ele>
        <time>2017-12-28T13:49:11Z</time>
      </trkpt>
      <trkpt lat="48.08634" lon="-4.24625">
        <ele>109.73</ele>
        <time>2017-12-28T13:49:21Z</time>
      </trkpt>
      <trkpt lat="48.08633" lon="-4.24639">
        <ele>103.96</ele>
        <time>2017-12-28T13:49:29Z</time>
      </trkpt>
      <trkpt lat="48.08627" lon="-4.2466">
        <ele>99.15</ele>
        <time>2017-12-28T13:49:41Z</time>
      </trkpt>
      <trkpt lat="48.08625" lon="-4.24673">
        <ele>96.27</ele>
        <time>2017-12-28T13:49:49Z</time>
      </trkpt>
      <trkpt lat="48.08625" lon="-4.24693">
        <ele>92.9</ele>
        <time>2017-12-28T13:50:01Z</time>
      </trkpt>
      <trkpt lat="48.08624" lon="-4.24717">
        <ele>92.9</ele>
        <time>2017-12-28T13:50:12Z</time>
      </trkpt>
      <trkpt lat="48.08625" lon="-4.24732">
        <ele>93.39</ele>
        <time>2017-12-28T13:50:21Z</time>
      </trkpt>
      <trkpt lat="48.08624" lon="-4.24751">
        <ele>93.39</ele>
        <time>2017-12-28T13:50:31Z</time>
      </trkpt>
      <trkpt lat="48.08626" lon="-4.24766">
        <ele>89.54</ele>
        <time>2017-12-28T13:50:44Z</time>
      </trkpt>
      <trkpt lat="48.08621" lon="-4.24799">
        <ele>87.62</ele>
        <time>2017-12-28T13:50:58Z</time>
      </trkpt>
      <trkpt lat="48.08619" lon="-4.24825">
        <ele>83.77</ele>
        <time>2017-12-28T13:51:09Z</time>
      </trkpt>
      <trkpt lat="48.0862" lon="-4.24854">
        <ele>80.41</ele>
        <time>2017-12-28T13:51:23Z</time>
      </trkpt>
      <trkpt lat="48.08618" lon="-4.24871">
        <ele>75.12</ele>
        <time>2017-12-28T13:51:33Z</time>
      </trkpt>
      <trkpt lat="48.08616" lon="-4.24898">
        <ele>73.68</ele>
        <time>2017-12-28T13:51:47Z</time>
      </trkpt>
      <trkpt lat="48.08616" lon="-4.249">
        <ele>73.68</ele>
        <time>2017-12-28T13:51:48Z</time>
      </trkpt>
      <trkpt lat="48.08623" lon="-4.2493">
        <ele>82.33</ele>
        <time>2017-12-28T13:52:03Z</time>
      </trkpt>
      <trkpt lat="48.08631" lon="-4.24954">
        <ele>89.06</ele>
        <time>2017-12-28T13:52:16Z</time>
      </trkpt>
      <trkpt lat="48.08632" lon="-4.24968">
        <ele>91.46</ele>
        <time>2017-12-28T13:52:26Z</time>
      </trkpt>
      <trkpt lat="48.08633" lon="-4.24969">
        <ele>91.46</ele>
        <time>2017-12-28T13:52:28Z</time>
      </trkpt>
      <trkpt lat="48.08632" lon="-4.24983">
        <ele>90.02</ele>
        <time>2017-12-28T13:52:38Z</time>
      </trkpt>
      <trkpt lat="48.08632" lon="-4.24983">
        <ele>90.02</ele>
        <time>2017-12-28T13:52:39Z</time>
      </trkpt>
      <trkpt lat="48.0863" lon="-4.24992">
        <ele>90.02</ele>
        <time>2017-12-28T13:52:43Z</time>
      </trkpt>
      <trkpt lat="48.0864" lon="-4.25018">
        <ele>93.87</ele>
        <time>2017-12-28T13:52:56Z</time>
      </trkpt>
      <trkpt lat="48.08641" lon="-4.25031">
        <ele>96.27</ele>
        <time>2017-12-28T13:53:03Z</time>
      </trkpt>
      <trkpt lat="48.08644" lon="-4.25043">
        <ele>98.19</ele>
        <time>2017-12-28T13:53:08Z</time>
      </trkpt>
      <trkpt lat="48.08652" lon="-4.25065">
        <ele>97.23</ele>
        <time>2017-12-28T13:53:22Z</time>
      </trkpt>
      <trkpt lat="48.08664" lon="-4.25083">
        <ele>94.83</ele>
        <time>2017-12-28T13:53:36Z</time>
      </trkpt>
      <trkpt lat="48.08667" lon="-4.25089">
        <ele>93.87</ele>
        <time>2017-12-28T13:53:40Z</time>
      </trkpt>
      <trkpt lat="48.08675" lon="-4.25108">
        <ele>95.79</ele>
        <time>2017-12-28T13:53:52Z</time>
      </trkpt>
      <trkpt lat="48.08676" lon="-4.2511">
        <ele>96.27</ele>
        <time>2017-12-28T13:53:53Z</time>
      </trkpt>
      <trkpt lat="48.08682" lon="-4.25134">
        <ele>97.23</ele>
        <time>2017-12-28T13:54:06Z</time>
      </trkpt>
      <trkpt lat="48.08686" lon="-4.25155">
        <ele>96.27</ele>
        <time>2017-12-28T13:54:18Z</time>
      </trkpt>
      <trkpt lat="48.08691" lon="-4.25184">
        <ele>99.15</ele>
        <time>2017-12-28T13:54:32Z</time>
      </trkpt>
      <trkpt lat="48.08701" lon="-4.25209">
        <ele>98.67</ele>
        <time>2017-12-28T13:54:47Z</time>
      </trkpt>
      <trkpt lat="48.08707" lon="-4.25229">
        <ele>99.15</ele>
        <time>2017-12-28T13:54:59Z</time>
      </trkpt>
      <trkpt lat="48.0871" lon="-4.2524">
        <ele>100.11</ele>
        <time>2017-12-28T13:55:04Z</time>
      </trkpt>
      <trkpt lat="48.08719" lon="-4.25267">
        <ele>101.08</ele>
        <time>2017-12-28T13:55:20Z</time>
      </trkpt>
      <trkpt lat="48.08724" lon="-4.2528">
        <ele>100.6</ele>
        <time>2017-12-28T13:55:28Z</time>
      </trkpt>
      <trkpt lat="48.08731" lon="-4.25299">
        <ele>100.6</ele>
        <time>2017-12-28T13:55:41Z</time>
      </trkpt>
      <trkpt lat="48.08742" lon="-4.25313">
        <ele>100.11</ele>
        <time>2017-12-28T13:55:53Z</time>
      </trkpt>
      <trkpt lat="48.08747" lon="-4.25319">
        <ele>100.11</ele>
        <time>2017-12-28T13:55:57Z</time>
      </trkpt>
      <trkpt lat="48.08751" lon="-4.25323">
        <ele>100.6</ele>
        <time>2017-12-28T13:56:00Z</time>
      </trkpt>
      <trkpt lat="48.0876" lon="-4.25331">
        <ele>99.15</ele>
        <time>2017-12-28T13:56:07Z</time>
      </trkpt>
      <trkpt lat="48.08775" lon="-4.25348">
        <ele>97.23</ele>
        <time>2017-12-28T13:56:23Z</time>
      </trkpt>
      <trkpt lat="48.08783" lon="-4.25367">
        <ele>97.71</ele>
        <time>2017-12-28T13:56:34Z</time>
      </trkpt>
      <trkpt lat="48.08782" lon="-4.25369">
        <ele>98.19</ele>
        <time>2017-12-28T13:56:46Z</time>
      </trkpt>
      <trkpt lat="48.0878" lon="-4.25374">
        <ele>94.35</ele>
        <time>2017-12-28T13:56:54Z</time>
      </trkpt>
      <trkpt lat="48.08774" lon="-4.25385">
        <ele>95.79</ele>
        <time>2017-12-28T13:57:05Z</time>
      </trkpt>
      <trkpt lat="48.0877" lon="-4.25388">
        <ele>97.23</ele>
        <time>2017-12-28T13:57:08Z</time>
      </trkpt>
      <trkpt lat="48.08763" lon="-4.25399">
        <ele>96.75</ele>
        <time>2017-12-28T13:57:21Z</time>
      </trkpt>
      <trkpt lat="48.08761" lon="-4.25421">
        <ele>97.23</ele>
        <time>2017-12-28T13:57:33Z</time>
      </trkpt>
      <trkpt lat="48.08761" lon="-4.25432">
        <ele>97.23</ele>
        <time>2017-12-28T13:57:37Z</time>
      </trkpt>
      <trkpt lat="48.08762" lon="-4.25445">
        <ele>98.19</ele>
        <time>2017-12-28T13:57:44Z</time>
      </trkpt>
      <trkpt lat="48.08763" lon="-4.25451">
        <ele>97.23</ele>
        <time>2017-12-28T13:57:48Z</time>
      </trkpt>
      <trkpt lat="48.08765" lon="-4.25458">
        <ele>95.79</ele>
        <time>2017-12-28T13:57:52Z</time>
      </trkpt>
      <trkpt lat="48.08772" lon="-4.25476">
        <ele>90.02</ele>
        <time>2017-12-28T13:58:06Z</time>
      </trkpt>
      <trkpt lat="48.08771" lon="-4.25494">
        <ele>90.02</ele>
        <time>2017-12-28T13:58:18Z</time>
      </trkpt>
      <trkpt lat="48.08778" lon="-4.25505">
        <ele>89.54</ele>
        <time>2017-12-28T13:58:29Z</time>
      </trkpt>
      <trkpt lat="48.08784" lon="-4.25516">
        <ele>88.58</ele>
        <time>2017-12-28T13:58:43Z</time>
      </trkpt>
      <trkpt lat="48.08793" lon="-4.25522">
        <ele>90.5</ele>
        <time>2017-12-28T13:59:01Z</time>
      </trkpt>
      <trkpt lat="48.08798" lon="-4.25537">
        <ele>90.5</ele>
        <time>2017-12-28T13:59:12Z</time>
      </trkpt>
      <trkpt lat="48.08798" lon="-4.2556">
        <ele>92.42</ele>
        <time>2017-12-28T13:59:26Z</time>
      </trkpt>
      <trkpt lat="48.08797" lon="-4.25563">
        <ele>92.9</ele>
        <time>2017-12-28T13:59:28Z</time>
      </trkpt>
      <trkpt lat="48.08797" lon="-4.25581">
        <ele>96.27</ele>
        <time>2017-12-28T13:59:41Z</time>
      </trkpt>
      <trkpt lat="48.08799" lon="-4.256">
        <ele>98.67</ele>
        <time>2017-12-28T13:59:55Z</time>
      </trkpt>
      <trkpt lat="48.08801" lon="-4.25622">
        <ele>97.71</ele>
        <time>2017-12-28T14:00:10Z</time>
      </trkpt>
      <trkpt lat="48.08796" lon="-4.25651">
        <ele>94.83</ele>
        <time>2017-12-28T14:00:24Z</time>
      </trkpt>
      <trkpt lat="48.08783" lon="-4.25666">
        <ele>94.35</ele>
        <time>2017-12-28T14:00:39Z</time>
      </trkpt>
      <trkpt lat="48.08777" lon="-4.25671">
        <ele>94.35</ele>
        <time>2017-12-28T14:00:46Z</time>
      </trkpt>
      <trkpt lat="48.08761" lon="-4.25676">
        <ele>95.79</ele>
        <time>2017-12-28T14:01:00Z</time>
      </trkpt>
      <trkpt lat="48.08753" lon="-4.25682">
        <ele>96.75</ele>
        <time>2017-12-28T14:01:12Z</time>
      </trkpt>
      <trkpt lat="48.08737" lon="-4.25686">
        <ele>97.23</ele>
        <time>2017-12-28T14:01:27Z</time>
      </trkpt>
      <trkpt lat="48.08727" lon="-4.25687">
        <ele>97.71</ele>
        <time>2017-12-28T14:01:35Z</time>
      </trkpt>
      <trkpt lat="48.08712" lon="-4.2569">
        <ele>97.23</ele>
        <time>2017-12-28T14:01:49Z</time>
      </trkpt>
      <trkpt lat="48.08701" lon="-4.25692">
        <ele>96.75</ele>
        <time>2017-12-28T14:02:01Z</time>
      </trkpt>
      <trkpt lat="48.08693" lon="-4.25695">
        <ele>95.31</ele>
        <time>2017-12-28T14:02:12Z</time>
      </trkpt>
      <trkpt lat="48.08684" lon="-4.25702">
        <ele>92.42</ele>
        <time>2017-12-28T14:02:21Z</time>
      </trkpt>
      <trkpt lat="48.08675" lon="-4.25748">
        <ele>96.75</ele>
        <time>2017-12-28T14:13:13Z</time>
      </trkpt>
      <trkpt lat="48.0867" lon="-4.25757">
        <ele>95.79</ele>
        <time>2017-12-28T14:13:24Z</time>
      </trkpt>
      <trkpt lat="48.0866" lon="-4.25777">
        <ele>93.87</ele>
        <time>2017-12-28T14:13:36Z</time>
      </trkpt>
      <trkpt lat="48.0866" lon="-4.25781">
        <ele>93.87</ele>
        <time>2017-12-28T14:13:38Z</time>
      </trkpt>
      <trkpt lat="48.08653" lon="-4.25798">
        <ele>92.9</ele>
        <time>2017-12-28T14:13:50Z</time>
      </trkpt>
      <trkpt lat="48.08649" lon="-4.25806">
        <ele>92.9</ele>
        <time>2017-12-28T14:14:02Z</time>
      </trkpt>
      <trkpt lat="48.08647" lon="-4.25807">
        <ele>92.9</ele>
        <time>2017-12-28T14:14:07Z</time>
      </trkpt>
      <trkpt lat="48.08646" lon="-4.25809">
        <ele>92.42</ele>
        <time>2017-12-28T14:14:09Z</time>
      </trkpt>
      <trkpt lat="48.08635" lon="-4.25831">
        <ele>92.9</ele>
        <time>2017-12-28T14:14:22Z</time>
      </trkpt>
      <trkpt lat="48.08631" lon="-4.25841">
        <ele>91.46</ele>
        <time>2017-12-28T14:14:32Z</time>
      </trkpt>
      <trkpt lat="48.08623" lon="-4.25861">
        <ele>88.1</ele>
        <time>2017-12-28T14:14:40Z</time>
      </trkpt>
      <trkpt lat="48.08615" lon="-4.2588">
        <ele>85.21</ele>
        <time>2017-12-28T14:14:52Z</time>
      </trkpt>
      <trkpt lat="48.08612" lon="-4.25887">
        <ele>86.18</ele>
        <time>2017-12-28T14:14:57Z</time>
      </trkpt>
      <trkpt lat="48.0861" lon="-4.25903">
        <ele>84.73</ele>
        <time>2017-12-28T14:15:10Z</time>
      </trkpt>
      <trkpt lat="48.08605" lon="-4.25924">
        <ele>81.37</ele>
        <time>2017-12-28T14:15:22Z</time>
      </trkpt>
      <trkpt lat="48.08604" lon="-4.25925">
        <ele>81.37</ele>
        <time>2017-12-28T14:15:23Z</time>
      </trkpt>
      <trkpt lat="48.08606" lon="-4.25929">
        <ele>80.89</ele>
        <time>2017-12-28T14:15:25Z</time>
      </trkpt>
      <trkpt lat="48.08607" lon="-4.25931">
        <ele>80.41</ele>
        <time>2017-12-28T14:15:30Z</time>
      </trkpt>
      <trkpt lat="48.08597" lon="-4.25941">
        <ele>78</ele>
        <time>2017-12-28T14:15:39Z</time>
      </trkpt>
      <trkpt lat="48.08582" lon="-4.25949">
        <ele>80.41</ele>
        <time>2017-12-28T14:15:49Z</time>
      </trkpt>
      <trkpt lat="48.08569" lon="-4.25945">
        <ele>78</ele>
        <time>2017-12-28T14:16:03Z</time>
      </trkpt>
      <trkpt lat="48.08552" lon="-4.25936">
        <ele>76.56</ele>
        <time>2017-12-28T14:16:20Z</time>
      </trkpt>
      <trkpt lat="48.0854" lon="-4.25931">
        <ele>74.64</ele>
        <time>2017-12-28T14:16:32Z</time>
      </trkpt>
      <trkpt lat="48.08529" lon="-4.25923">
        <ele>73.68</ele>
        <time>2017-12-28T14:16:42Z</time>
      </trkpt>
      <trkpt lat="48.08519" lon="-4.25911">
        <ele>71.27</ele>
        <time>2017-12-28T14:16:56Z</time>
      </trkpt>
      <trkpt lat="48.08505" lon="-4.259">
        <ele>71.27</ele>
        <time>2017-12-28T14:17:10Z</time>
      </trkpt>
      <trkpt lat="48.08497" lon="-4.25891">
        <ele>70.31</ele>
        <time>2017-12-28T14:17:19Z</time>
      </trkpt>
      <trkpt lat="48.08486" lon="-4.25873">
        <ele>70.31</ele>
        <time>2017-12-28T14:17:31Z</time>
      </trkpt>
      <trkpt lat="48.08481" lon="-4.2586">
        <ele>71.27</ele>
        <time>2017-12-28T14:17:41Z</time>
      </trkpt>
      <trkpt lat="48.08475" lon="-4.25846">
        <ele>69.35</ele>
        <time>2017-12-28T14:17:54Z</time>
      </trkpt>
      <trkpt lat="48.08469" lon="-4.25825">
        <ele>71.27</ele>
        <time>2017-12-28T14:18:04Z</time>
      </trkpt>
      <trkpt lat="48.08463" lon="-4.25812">
        <ele>69.35</ele>
        <time>2017-12-28T14:18:16Z</time>
      </trkpt>
      <trkpt lat="48.08457" lon="-4.25793">
        <ele>70.79</ele>
        <time>2017-12-28T14:18:29Z</time>
      </trkpt>
      <trkpt lat="48.08453" lon="-4.25773">
        <ele>75.6</ele>
        <time>2017-12-28T14:18:43Z</time>
      </trkpt>
      <trkpt lat="48.08451" lon="-4.25753">
        <ele>75.6</ele>
        <time>2017-12-28T14:18:57Z</time>
      </trkpt>
      <trkpt lat="48.0845" lon="-4.25736">
        <ele>75.6</ele>
        <time>2017-12-28T14:19:08Z</time>
      </trkpt>
      <trkpt lat="48.08448" lon="-4.2573">
        <ele>74.16</ele>
        <time>2017-12-28T14:19:13Z</time>
      </trkpt>
      <trkpt lat="48.08446" lon="-4.25716">
        <ele>74.16</ele>
        <time>2017-12-28T14:19:23Z</time>
      </trkpt>
      <trkpt lat="48.08441" lon="-4.25697">
        <ele>78</ele>
        <time>2017-12-28T14:19:36Z</time>
      </trkpt>
      <trkpt lat="48.08436" lon="-4.25676">
        <ele>81.37</ele>
        <time>2017-12-28T14:19:46Z</time>
      </trkpt>
      <trkpt lat="48.08427" lon="-4.25667">
        <ele>88.58</ele>
        <time>2017-12-28T14:19:58Z</time>
      </trkpt>
      <trkpt lat="48.08418" lon="-4.25673">
        <ele>92.42</ele>
        <time>2017-12-28T14:20:08Z</time>
      </trkpt>
      <trkpt lat="48.08407" lon="-4.25684">
        <ele>93.39</ele>
        <time>2017-12-28T14:20:19Z</time>
      </trkpt>
      <trkpt lat="48.08397" lon="-4.25692">
        <ele>93.87</ele>
        <time>2017-12-28T14:20:32Z</time>
      </trkpt>
      <trkpt lat="48.08381" lon="-4.25708">
        <ele>96.27</ele>
        <time>2017-12-28T14:20:44Z</time>
      </trkpt>
      <trkpt lat="48.08374" lon="-4.25712">
        <ele>95.31</ele>
        <time>2017-12-28T14:20:55Z</time>
      </trkpt>
      <trkpt lat="48.08358" lon="-4.25725">
        <ele>90.5</ele>
        <time>2017-12-28T14:21:06Z</time>
      </trkpt>
      <trkpt lat="48.08344" lon="-4.25736">
        <ele>89.06</ele>
        <time>2017-12-28T14:21:17Z</time>
      </trkpt>
      <trkpt lat="48.08327" lon="-4.25747">
        <ele>84.25</ele>
        <time>2017-12-28T14:21:31Z</time>
      </trkpt>
      <trkpt lat="48.08319" lon="-4.25747">
        <ele>78</ele>
        <time>2017-12-28T14:21:42Z</time>
      </trkpt>
      <trkpt lat="48.08313" lon="-4.25745">
        <ele>70.31</ele>
        <time>2017-12-28T14:21:55Z</time>
      </trkpt>
      <trkpt lat="48.08306" lon="-4.25742">
        <ele>65.03</ele>
        <time>2017-12-28T14:22:03Z</time>
      </trkpt>
      <trkpt lat="48.08291" lon="-4.2575">
        <ele>58.3</ele>
        <time>2017-12-28T14:22:17Z</time>
      </trkpt>
      <trkpt lat="48.08282" lon="-4.25758">
        <ele>55.41</ele>
        <time>2017-12-28T14:22:27Z</time>
      </trkpt>
      <trkpt lat="48.08275" lon="-4.25767">
        <ele>53.97</ele>
        <time>2017-12-28T14:22:38Z</time>
      </trkpt>
      <trkpt lat="48.08275" lon="-4.25769">
        <ele>52.53</ele>
        <time>2017-12-28T14:22:40Z</time>
      </trkpt>
      <trkpt lat="48.08272" lon="-4.25772">
        <ele>51.09</ele>
        <time>2017-12-28T14:22:44Z</time>
      </trkpt>
      <trkpt lat="48.08269" lon="-4.25775">
        <ele>50.61</ele>
        <time>2017-12-28T14:22:49Z</time>
      </trkpt>
      <trkpt lat="48.08268" lon="-4.25771">
        <ele>48.68</ele>
        <time>2017-12-28T14:22:54Z</time>
      </trkpt>
      <trkpt lat="48.0826" lon="-4.25775">
        <ele>48.2</ele>
        <time>2017-12-28T14:23:00Z</time>
      </trkpt>
      <trkpt lat="48.08254" lon="-4.25782">
        <ele>48.2</ele>
        <time>2017-12-28T14:23:03Z</time>
      </trkpt>
      <trkpt lat="48.08248" lon="-4.25784">
        <ele>48.68</ele>
        <time>2017-12-28T14:23:07Z</time>
      </trkpt>
      <trkpt lat="48.08245" lon="-4.25785">
        <ele>48.68</ele>
        <time>2017-12-28T14:23:12Z</time>
      </trkpt>
      <trkpt lat="48.08237" lon="-4.25789">
        <ele>48.68</ele>
        <time>2017-12-28T14:23:18Z</time>
      </trkpt>
      <trkpt lat="48.0823" lon="-4.25792">
        <ele>48.2</ele>
        <time>2017-12-28T14:23:22Z</time>
      </trkpt>
      <trkpt lat="48.08215" lon="-4.25803">
        <ele>53.01</ele>
        <time>2017-12-28T14:23:31Z</time>
      </trkpt>
      <trkpt lat="48.08202" lon="-4.25813">
        <ele>53.97</ele>
        <time>2017-12-28T14:23:40Z</time>
      </trkpt>
      <trkpt lat="48.0818" lon="-4.25853">
        <ele>68.87</ele>
        <time>2017-12-28T14:23:51Z</time>
      </trkpt>
      <trkpt lat="48.0817" lon="-4.25869">
        <ele>74.16</ele>
        <time>2017-12-28T14:24:02Z</time>
      </trkpt>
      <trkpt lat="48.0816" lon="-4.25884">
        <ele>78.48</ele>
        <time>2017-12-28T14:24:15Z</time>
      </trkpt>
      <trkpt lat="48.08153" lon="-4.25891">
        <ele>78</ele>
        <time>2017-12-28T14:24:23Z</time>
      </trkpt>
      <trkpt lat="48.08135" lon="-4.25896">
        <ele>74.16</ele>
        <time>2017-12-28T14:24:38Z</time>
      </trkpt>
      <trkpt lat="48.0812" lon="-4.25895">
        <ele>72.24</ele>
        <time>2017-12-28T14:24:51Z</time>
      </trkpt>
      <trkpt lat="48.08119" lon="-4.25895">
        <ele>72.24</ele>
        <time>2017-12-28T14:24:52Z</time>
      </trkpt>
      <trkpt lat="48.08115" lon="-4.25892">
        <ele>71.27</ele>
        <time>2017-12-28T14:24:56Z</time>
      </trkpt>
      <trkpt lat="48.08113" lon="-4.2589">
        <ele>71.27</ele>
        <time>2017-12-28T14:24:58Z</time>
      </trkpt>
      <trkpt lat="48.08107" lon="-4.25887">
        <ele>71.27</ele>
        <time>2017-12-28T14:25:02Z</time>
      </trkpt>
      <trkpt lat="48.0809" lon="-4.25878">
        <ele>71.76</ele>
        <time>2017-12-28T14:25:16Z</time>
      </trkpt>
      <trkpt lat="48.08079" lon="-4.25871">
        <ele>70.79</ele>
        <time>2017-12-28T14:25:27Z</time>
      </trkpt>
      <trkpt lat="48.08067" lon="-4.2586">
        <ele>72.24</ele>
        <time>2017-12-28T14:25:39Z</time>
      </trkpt>
      <trkpt lat="48.08059" lon="-4.25853">
        <ele>72.72</ele>
        <time>2017-12-28T14:25:46Z</time>
      </trkpt>
      <trkpt lat="48.08045" lon="-4.25842">
        <ele>75.12</ele>
        <time>2017-12-28T14:25:58Z</time>
      </trkpt>
      <trkpt lat="48.08037" lon="-4.25835">
        <ele>76.08</ele>
        <time>2017-12-28T14:26:06Z</time>
      </trkpt>
      <trkpt lat="48.08024" lon="-4.25822">
        <ele>77.04</ele>
        <time>2017-12-28T14:26:19Z</time>
      </trkpt>
      <trkpt lat="48.08023" lon="-4.25821">
        <ele>77.52</ele>
        <time>2017-12-28T14:26:20Z</time>
      </trkpt>
      <trkpt lat="48.08011" lon="-4.25813">
        <ele>77.52</ele>
        <time>2017-12-28T14:26:30Z</time>
      </trkpt>
      <trkpt lat="48.07998" lon="-4.25801">
        <ele>76.08</ele>
        <time>2017-12-28T14:26:43Z</time>
      </trkpt>
      <trkpt lat="48.07985" lon="-4.25787">
        <ele>76.08</ele>
        <time>2017-12-28T14:26:56Z</time>
      </trkpt>
      <trkpt lat="48.07975" lon="-4.25779">
        <ele>78</ele>
        <time>2017-12-28T14:27:06Z</time>
      </trkpt>
      <trkpt lat="48.07971" lon="-4.25777">
        <ele>78</ele>
        <time>2017-12-28T14:27:10Z</time>
      </trkpt>
      <trkpt lat="48.07969" lon="-4.25775">
        <ele>77.52</ele>
        <time>2017-12-28T14:27:13Z</time>
      </trkpt>
      <trkpt lat="48.07964" lon="-4.25772">
        <ele>76.56</ele>
        <time>2017-12-28T14:27:17Z</time>
      </trkpt>
      <trkpt lat="48.07961" lon="-4.2577">
        <ele>76.08</ele>
        <time>2017-12-28T14:27:20Z</time>
      </trkpt>
      <trkpt lat="48.07945" lon="-4.25756">
        <ele>75.12</ele>
        <time>2017-12-28T14:27:33Z</time>
      </trkpt>
      <trkpt lat="48.07932" lon="-4.25749">
        <ele>73.68</ele>
        <time>2017-12-28T14:27:45Z</time>
      </trkpt>
      <trkpt lat="48.07913" lon="-4.25731">
        <ele>71.27</ele>
        <time>2017-12-28T14:28:02Z</time>
      </trkpt>
      <trkpt lat="48.07908" lon="-4.25726">
        <ele>71.27</ele>
        <time>2017-12-28T14:28:06Z</time>
      </trkpt>
      <trkpt lat="48.07898" lon="-4.25716">
        <ele>70.31</ele>
        <time>2017-12-28T14:28:16Z</time>
      </trkpt>
      <trkpt lat="48.07882" lon="-4.25702">
        <ele>70.31</ele>
        <time>2017-12-28T14:28:31Z</time>
      </trkpt>
      <trkpt lat="48.07876" lon="-4.25697">
        <ele>69.83</ele>
        <time>2017-12-28T14:28:37Z</time>
      </trkpt>
      <trkpt lat="48.07873" lon="-4.25691">
        <ele>69.35</ele>
        <time>2017-12-28T14:28:41Z</time>
      </trkpt>
      <trkpt lat="48.07859" lon="-4.25678">
        <ele>68.39</ele>
        <time>2017-12-28T14:28:55Z</time>
      </trkpt>
      <trkpt lat="48.07847" lon="-4.25667">
        <ele>67.91</ele>
        <time>2017-12-28T14:29:07Z</time>
      </trkpt>
      <trkpt lat="48.07843" lon="-4.25663">
        <ele>67.91</ele>
        <time>2017-12-28T14:29:10Z</time>
      </trkpt>
      <trkpt lat="48.0784" lon="-4.25658">
        <ele>67.91</ele>
        <time>2017-12-28T14:29:13Z</time>
      </trkpt>
      <trkpt lat="48.07832" lon="-4.2564">
        <ele>67.43</ele>
        <time>2017-12-28T14:29:25Z</time>
      </trkpt>
      <trkpt lat="48.07829" lon="-4.2563">
        <ele>61.66</ele>
        <time>2017-12-28T14:29:39Z</time>
      </trkpt>
      <trkpt lat="48.07827" lon="-4.25625">
        <ele>60.22</ele>
        <time>2017-12-28T14:30:00Z</time>
      </trkpt>
      <trkpt lat="48.07818" lon="-4.25612">
        <ele>51.57</ele>
        <time>2017-12-28T14:30:15Z</time>
      </trkpt>
      <trkpt lat="48.07816" lon="-4.2561">
        <ele>50.13</ele>
        <time>2017-12-28T14:30:17Z</time>
      </trkpt>
      <trkpt lat="48.07805" lon="-4.2559">
        <ele>41.47</ele>
        <time>2017-12-28T14:30:33Z</time>
      </trkpt>
      <trkpt lat="48.07799" lon="-4.25582">
        <ele>39.07</ele>
        <time>2017-12-28T14:30:39Z</time>
      </trkpt>
      <trkpt lat="48.07787" lon="-4.25571">
        <ele>39.55</ele>
        <time>2017-12-28T14:30:50Z</time>
      </trkpt>
      <trkpt lat="48.07782" lon="-4.25566">
        <ele>39.55</ele>
        <time>2017-12-28T14:30:55Z</time>
      </trkpt>
      <trkpt lat="48.07766" lon="-4.25546">
        <ele>45.8</ele>
        <time>2017-12-28T14:31:08Z</time>
      </trkpt>
      <trkpt lat="48.07761" lon="-4.25537">
        <ele>48.2</ele>
        <time>2017-12-28T14:31:13Z</time>
      </trkpt>
      <trkpt lat="48.07747" lon="-4.25525">
        <ele>47.72</ele>
        <time>2017-12-28T14:31:26Z</time>
      </trkpt>
      <trkpt lat="48.07743" lon="-4.25519">
        <ele>46.76</ele>
        <time>2017-12-28T14:31:39Z</time>
      </trkpt>
      <trkpt lat="48.07738" lon="-4.25507">
        <ele>50.13</ele>
        <time>2017-12-28T14:31:52Z</time>
      </trkpt>
      <trkpt lat="48.07736" lon="-4.25501">
        <ele>52.53</ele>
        <time>2017-12-28T14:32:05Z</time>
      </trkpt>
      <trkpt lat="48.07736" lon="-4.25499">
        <ele>53.01</ele>
        <time>2017-12-28T14:32:20Z</time>
      </trkpt>
      <trkpt lat="48.07732" lon="-4.25481">
        <ele>55.41</ele>
        <time>2017-12-28T14:32:38Z</time>
      </trkpt>
      <trkpt lat="48.07734" lon="-4.25471">
        <ele>59.74</ele>
        <time>2017-12-28T14:32:52Z</time>
      </trkpt>
      <trkpt lat="48.07736" lon="-4.25464">
        <ele>63.58</ele>
        <time>2017-12-28T14:33:01Z</time>
      </trkpt>
      <trkpt lat="48.07738" lon="-4.25458">
        <ele>66.95</ele>
        <time>2017-12-28T14:33:12Z</time>
      </trkpt>
      <trkpt lat="48.07739" lon="-4.25449">
        <ele>68.87</ele>
        <time>2017-12-28T14:33:28Z</time>
      </trkpt>
      <trkpt lat="48.07743" lon="-4.25442">
        <ele>68.87</ele>
        <time>2017-12-28T14:33:37Z</time>
      </trkpt>
      <trkpt lat="48.07737" lon="-4.2543">
        <ele>70.31</ele>
        <time>2017-12-28T14:33:51Z</time>
      </trkpt>
      <trkpt lat="48.07729" lon="-4.25419">
        <ele>71.76</ele>
        <time>2017-12-28T14:34:03Z</time>
      </trkpt>
      <trkpt lat="48.07724" lon="-4.25411">
        <ele>74.16</ele>
        <time>2017-12-28T14:34:17Z</time>
      </trkpt>
      <trkpt lat="48.07718" lon="-4.25397">
        <ele>69.83</ele>
        <time>2017-12-28T14:34:31Z</time>
      </trkpt>
      <trkpt lat="48.07714" lon="-4.25384">
        <ele>69.35</ele>
        <time>2017-12-28T14:34:43Z</time>
      </trkpt>
      <trkpt lat="48.07713" lon="-4.25382">
        <ele>67.91</ele>
        <time>2017-12-28T14:34:55Z</time>
      </trkpt>
      <trkpt lat="48.07715" lon="-4.25363">
        <ele>70.31</ele>
        <time>2017-12-28T14:35:06Z</time>
      </trkpt>
      <trkpt lat="48.07713" lon="-4.25347">
        <ele>68.87</ele>
        <time>2017-12-28T14:35:18Z</time>
      </trkpt>
      <trkpt lat="48.07718" lon="-4.25326">
        <ele>70.31</ele>
        <time>2017-12-28T14:35:30Z</time>
      </trkpt>
      <trkpt lat="48.07723" lon="-4.25313">
        <ele>70.31</ele>
        <time>2017-12-28T14:35:38Z</time>
      </trkpt>
      <trkpt lat="48.07732" lon="-4.25305">
        <ele>72.72</ele>
        <time>2017-12-28T14:35:49Z</time>
      </trkpt>
      <trkpt lat="48.0774" lon="-4.25301">
        <ele>71.76</ele>
        <time>2017-12-28T14:36:01Z</time>
      </trkpt>
      <trkpt lat="48.07752" lon="-4.25289">
        <ele>71.27</ele>
        <time>2017-12-28T14:36:15Z</time>
      </trkpt>
      <trkpt lat="48.07762" lon="-4.2528">
        <ele>70.31</ele>
        <time>2017-12-28T14:36:27Z</time>
      </trkpt>
      <trkpt lat="48.07772" lon="-4.2527">
        <ele>70.79</ele>
        <time>2017-12-28T14:36:38Z</time>
      </trkpt>
      <trkpt lat="48.07783" lon="-4.25253">
        <ele>74.16</ele>
        <time>2017-12-28T14:36:51Z</time>
      </trkpt>
      <trkpt lat="48.07796" lon="-4.25241">
        <ele>79.45</ele>
        <time>2017-12-28T14:37:02Z</time>
      </trkpt>
      <trkpt lat="48.07808" lon="-4.25228">
        <ele>81.37</ele>
        <time>2017-12-28T14:37:13Z</time>
      </trkpt>
      <trkpt lat="48.07812" lon="-4.25221">
        <ele>81.85</ele>
        <time>2017-12-28T14:37:18Z</time>
      </trkpt>
      <trkpt lat="48.07817" lon="-4.25205">
        <ele>82.33</ele>
        <time>2017-12-28T14:37:29Z</time>
      </trkpt>
      <trkpt lat="48.07818" lon="-4.25199">
        <ele>82.33</ele>
        <time>2017-12-28T14:37:33Z</time>
      </trkpt>
      <trkpt lat="48.0782" lon="-4.25181">
        <ele>81.85</ele>
        <time>2017-12-28T14:37:46Z</time>
      </trkpt>
      <trkpt lat="48.07828" lon="-4.25165">
        <ele>80.41</ele>
        <time>2017-12-28T14:37:58Z</time>
      </trkpt>
      <trkpt lat="48.07839" lon="-4.25162">
        <ele>81.85</ele>
        <time>2017-12-28T14:38:12Z</time>
      </trkpt>
      <trkpt lat="48.07849" lon="-4.25161">
        <ele>81.37</ele>
        <time>2017-12-28T14:38:22Z</time>
      </trkpt>
      <trkpt lat="48.0785" lon="-4.2516">
        <ele>81.37</ele>
        <time>2017-12-28T14:38:23Z</time>
      </trkpt>
      <trkpt lat="48.07863" lon="-4.25159">
        <ele>81.85</ele>
        <time>2017-12-28T14:38:35Z</time>
      </trkpt>
      <trkpt lat="48.07874" lon="-4.25158">
        <ele>82.81</ele>
        <time>2017-12-28T14:38:45Z</time>
      </trkpt>
      <trkpt lat="48.07876" lon="-4.25156">
        <ele>82.81</ele>
        <time>2017-12-28T14:38:46Z</time>
      </trkpt>
      <trkpt lat="48.07885" lon="-4.25149">
        <ele>82.33</ele>
        <time>2017-12-28T14:39:02Z</time>
      </trkpt>
      <trkpt lat="48.07899" lon="-4.25137">
        <ele>80.41</ele>
        <time>2017-12-28T14:39:17Z</time>
      </trkpt>
      <trkpt lat="48.07911" lon="-4.25128">
        <ele>79.45</ele>
        <time>2017-12-28T14:39:31Z</time>
      </trkpt>
      <trkpt lat="48.07931" lon="-4.25125">
        <ele>81.37</ele>
        <time>2017-12-28T14:39:44Z</time>
      </trkpt>
      <trkpt lat="48.07931" lon="-4.25124">
        <ele>81.37</ele>
        <time>2017-12-28T14:39:47Z</time>
      </trkpt>
      <trkpt lat="48.07931" lon="-4.25124">
        <ele>80.89</ele>
        <time>2017-12-28T14:39:51Z</time>
      </trkpt>
      <trkpt lat="48.07947" lon="-4.25125">
        <ele>80.89</ele>
        <time>2017-12-28T14:40:02Z</time>
      </trkpt>
      <trkpt lat="48.0796" lon="-4.25128">
        <ele>79.93</ele>
        <time>2017-12-28T14:40:13Z</time>
      </trkpt>
      <trkpt lat="48.07969" lon="-4.25131">
        <ele>79.45</ele>
        <time>2017-12-28T14:40:23Z</time>
      </trkpt>
      <trkpt lat="48.07988" lon="-4.25137">
        <ele>84.25</ele>
        <time>2017-12-28T14:40:34Z</time>
      </trkpt>
      <trkpt lat="48.08002" lon="-4.2514">
        <ele>86.66</ele>
        <time>2017-12-28T14:40:45Z</time>
      </trkpt>
      <trkpt lat="48.08015" lon="-4.25143">
        <ele>89.06</ele>
        <time>2017-12-28T14:40:55Z</time>
      </trkpt>
      <trkpt lat="48.08025" lon="-4.25144">
        <ele>89.06</ele>
        <time>2017-12-28T14:41:06Z</time>
      </trkpt>
      <trkpt lat="48.08037" lon="-4.25144">
        <ele>88.58</ele>
        <time>2017-12-28T14:41:16Z</time>
      </trkpt>
      <trkpt lat="48.08047" lon="-4.25144">
        <ele>88.1</ele>
        <time>2017-12-28T14:41:27Z</time>
      </trkpt>
      <trkpt lat="48.08063" lon="-4.25141">
        <ele>88.58</ele>
        <time>2017-12-28T14:41:38Z</time>
      </trkpt>
      <trkpt lat="48.08067" lon="-4.25142">
        <ele>88.1</ele>
        <time>2017-12-28T14:41:41Z</time>
      </trkpt>
      <trkpt lat="48.08076" lon="-4.25139">
        <ele>88.58</ele>
        <time>2017-12-28T14:41:53Z</time>
      </trkpt>
      <trkpt lat="48.08077" lon="-4.25139">
        <ele>89.06</ele>
        <time>2017-12-28T14:41:55Z</time>
      </trkpt>
      <trkpt lat="48.08081" lon="-4.25138">
        <ele>89.06</ele>
        <time>2017-12-28T14:41:57Z</time>
      </trkpt>
      <trkpt lat="48.0809" lon="-4.25137">
        <ele>90.02</ele>
        <time>2017-12-28T14:42:09Z</time>
      </trkpt>
      <trkpt lat="48.08112" lon="-4.25134">
        <ele>92.9</ele>
        <time>2017-12-28T14:42:22Z</time>
      </trkpt>
      <trkpt lat="48.08132" lon="-4.25117">
        <ele>98.19</ele>
        <time>2017-12-28T14:42:37Z</time>
      </trkpt>
      <trkpt lat="48.0814" lon="-4.25107">
        <ele>98.67</ele>
        <time>2017-12-28T14:42:49Z</time>
      </trkpt>
      <trkpt lat="48.08146" lon="-4.251">
        <ele>98.67</ele>
        <time>2017-12-28T14:42:59Z</time>
      </trkpt>
      <trkpt lat="48.08154" lon="-4.25091">
        <ele>96.75</ele>
        <time>2017-12-28T14:43:10Z</time>
      </trkpt>
      <trkpt lat="48.08161" lon="-4.2508">
        <ele>91.46</ele>
        <time>2017-12-28T14:43:21Z</time>
      </trkpt>
      <trkpt lat="48.08169" lon="-4.25058">
        <ele>89.06</ele>
        <time>2017-12-28T14:43:35Z</time>
      </trkpt>
      <trkpt lat="48.08172" lon="-4.25038">
        <ele>90.98</ele>
        <time>2017-12-28T14:43:46Z</time>
      </trkpt>
      <trkpt lat="48.08172" lon="-4.25036">
        <ele>90.98</ele>
        <time>2017-12-28T14:43:47Z</time>
      </trkpt>
      <trkpt lat="48.08174" lon="-4.25015">
        <ele>94.83</ele>
        <time>2017-12-28T14:43:59Z</time>
      </trkpt>
      <trkpt lat="48.08177" lon="-4.24997">
        <ele>97.23</ele>
        <time>2017-12-28T14:44:14Z</time>
      </trkpt>
      <trkpt lat="48.08178" lon="-4.24982">
        <ele>97.23</ele>
        <time>2017-12-28T14:44:27Z</time>
      </trkpt>
      <trkpt lat="48.08181" lon="-4.24966">
        <ele>96.27</ele>
        <time>2017-12-28T14:44:38Z</time>
      </trkpt>
      <trkpt lat="48.0818" lon="-4.24946">
        <ele>91.94</ele>
        <time>2017-12-28T14:44:51Z</time>
      </trkpt>
      <trkpt lat="48.0818" lon="-4.24928">
        <ele>90.98</ele>
        <time>2017-12-28T14:45:04Z</time>
      </trkpt>
      <trkpt lat="48.08182" lon="-4.2491">
        <ele>92.9</ele>
        <time>2017-12-28T14:45:17Z</time>
      </trkpt>
      <trkpt lat="48.08186" lon="-4.24888">
        <ele>97.23</ele>
        <time>2017-12-28T14:45:27Z</time>
      </trkpt>
      <trkpt lat="48.08196" lon="-4.24863">
        <ele>102.52</ele>
        <time>2017-12-28T14:45:41Z</time>
      </trkpt>
      <trkpt lat="48.08205" lon="-4.24846">
        <ele>103.48</ele>
        <time>2017-12-28T14:45:54Z</time>
      </trkpt>
      <trkpt lat="48.0821" lon="-4.24839">
        <ele>103</ele>
        <time>2017-12-28T14:46:06Z</time>
      </trkpt>
      <trkpt lat="48.08219" lon="-4.24826">
        <ele>101.08</ele>
        <time>2017-12-28T14:46:20Z</time>
      </trkpt>
      <trkpt lat="48.08219" lon="-4.24824">
        <ele>101.08</ele>
        <time>2017-12-28T14:46:21Z</time>
      </trkpt>
      <trkpt lat="48.08226" lon="-4.248">
        <ele>100.6</ele>
        <time>2017-12-28T14:46:33Z</time>
      </trkpt>
      <trkpt lat="48.08228" lon="-4.24785">
        <ele>102.04</ele>
        <time>2017-12-28T14:46:41Z</time>
      </trkpt>
      <trkpt lat="48.08241" lon="-4.24765">
        <ele>108.29</ele>
        <time>2017-12-28T14:46:54Z</time>
      </trkpt>
      <trkpt lat="48.0825" lon="-4.24759">
        <ele>114.53</ele>
        <time>2017-12-28T14:47:09Z</time>
      </trkpt>
      <trkpt lat="48.08258" lon="-4.24749">
        <ele>114.05</ele>
        <time>2017-12-28T14:47:20Z</time>
      </trkpt>
      <trkpt lat="48.08262" lon="-4.24743">
        <ele>113.09</ele>
        <time>2017-12-28T14:47:25Z</time>
      </trkpt>
      <trkpt lat="48.08265" lon="-4.24737">
        <ele>112.61</ele>
        <time>2017-12-28T14:47:29Z</time>
      </trkpt>
      <trkpt lat="48.08278" lon="-4.24715">
        <ele>110.69</ele>
        <time>2017-12-28T14:47:45Z</time>
      </trkpt>
      <trkpt lat="48.08283" lon="-4.24705">
        <ele>108.77</ele>
        <time>2017-12-28T14:47:53Z</time>
      </trkpt>
      <trkpt lat="48.08295" lon="-4.24687">
        <ele>108.77</ele>
        <time>2017-12-28T14:48:07Z</time>
      </trkpt>
      <trkpt lat="48.08296" lon="-4.24686">
        <ele>108.77</ele>
        <time>2017-12-28T14:48:08Z</time>
      </trkpt>
      <trkpt lat="48.08306" lon="-4.24669">
        <ele>109.73</ele>
        <time>2017-12-28T14:48:21Z</time>
      </trkpt>
      <trkpt lat="48.08311" lon="-4.24651">
        <ele>109.25</ele>
        <time>2017-12-28T14:48:32Z</time>
      </trkpt>
      <trkpt lat="48.08314" lon="-4.24639">
        <ele>110.21</ele>
        <time>2017-12-28T14:48:39Z</time>
      </trkpt>
      <trkpt lat="48.08317" lon="-4.24636">
        <ele>110.21</ele>
        <time>2017-12-28T14:48:42Z</time>
      </trkpt>
      <trkpt lat="48.08318" lon="-4.24637">
        <ele>110.21</ele>
        <time>2017-12-28T14:48:45Z</time>
      </trkpt>
      <trkpt lat="48.08322" lon="-4.24638">
        <ele>112.13</ele>
        <time>2017-12-28T14:48:49Z</time>
      </trkpt>
      <trkpt lat="48.08325" lon="-4.2464">
        <ele>113.57</ele>
        <time>2017-12-28T14:48:53Z</time>
      </trkpt>
      <trkpt lat="48.08337" lon="-4.24635">
        <ele>117.42</ele>
        <time>2017-12-28T14:49:07Z</time>
      </trkpt>
      <trkpt lat="48.08343" lon="-4.24623">
        <ele>116.46</ele>
        <time>2017-12-28T14:49:18Z</time>
      </trkpt>
      <trkpt lat="48.08351" lon="-4.24607">
        <ele>112.13</ele>
        <time>2017-12-28T14:49:31Z</time>
      </trkpt>
      <trkpt lat="48.0836" lon="-4.24593">
        <ele>113.09</ele>
        <time>2017-12-28T14:49:43Z</time>
      </trkpt>
      <trkpt lat="48.08365" lon="-4.24583">
        <ele>109.73</ele>
        <time>2017-12-28T14:49:53Z</time>
      </trkpt>
      <trkpt lat="48.08374" lon="-4.24567">
        <ele>103.48</ele>
        <time>2017-12-28T14:50:06Z</time>
      </trkpt>
      <trkpt lat="48.08385" lon="-4.24551">
        <ele>103</ele>
        <time>2017-12-28T14:50:17Z</time>
      </trkpt>
      <trkpt lat="48.08394" lon="-4.24534">
        <ele>105.88</ele>
        <time>2017-12-28T14:50:31Z</time>
      </trkpt>
      <trkpt lat="48.08404" lon="-4.24518">
        <ele>109.73</ele>
        <time>2017-12-28T14:50:44Z</time>
      </trkpt>
      <trkpt lat="48.08411" lon="-4.24506">
        <ele>111.17</ele>
        <time>2017-12-28T14:50:55Z</time>
      </trkpt>
      <trkpt lat="48.08419" lon="-4.24494">
        <ele>113.09</ele>
        <time>2017-12-28T14:51:07Z</time>
      </trkpt>
      <trkpt lat="48.08428" lon="-4.24479">
        <ele>115.5</ele>
        <time>2017-12-28T14:51:20Z</time>
      </trkpt>
      <trkpt lat="48.08439" lon="-4.24457">
        <ele>116.46</ele>
        <time>2017-12-28T14:51:35Z</time>
      </trkpt>
      <trkpt lat="48.08446" lon="-4.24443">
        <ele>116.94</ele>
        <time>2017-12-28T14:51:46Z</time>
      </trkpt>
      <trkpt lat="48.08448" lon="-4.2444">
        <ele>116.46</ele>
        <time>2017-12-28T14:51:48Z</time>
      </trkpt>
      <trkpt lat="48.08461" lon="-4.24419">
        <ele>116.94</ele>
        <time>2017-12-28T14:52:02Z</time>
      </trkpt>
      <trkpt lat="48.08472" lon="-4.24402">
        <ele>114.53</ele>
        <time>2017-12-28T14:52:13Z</time>
      </trkpt>
      <trkpt lat="48.08476" lon="-4.24396">
        <ele>115.01</ele>
        <time>2017-12-28T14:52:18Z</time>
      </trkpt>
      <trkpt lat="48.08478" lon="-4.24382">
        <ele>115.98</ele>
        <time>2017-12-28T14:52:30Z</time>
      </trkpt>
      <trkpt lat="48.08456" lon="-4.24379">
        <ele>115.98</ele>
        <time>2017-12-28T14:52:45Z</time>
      </trkpt>
      <trkpt lat="48.08444" lon="-4.24373">
        <ele>115.01</ele>
        <time>2017-12-28T14:52:56Z</time>
      </trkpt>
      <trkpt lat="48.08438" lon="-4.24368">
        <ele>112.13</ele>
        <time>2017-12-28T14:53:07Z</time>
      </trkpt>
      <trkpt lat="48.08435" lon="-4.24364">
        <ele>110.69</ele>
        <time>2017-12-28T14:53:13Z</time>
      </trkpt>
      <trkpt lat="48.08424" lon="-4.24347">
        <ele>108.77</ele>
        <time>2017-12-28T14:53:24Z</time>
      </trkpt>
      <trkpt lat="48.08413" lon="-4.24326">
        <ele>109.25</ele>
        <time>2017-12-28T14:53:38Z</time>
      </trkpt>
      <trkpt lat="48.08404" lon="-4.24314">
        <ele>109.73</ele>
        <time>2017-12-28T14:53:47Z</time>
      </trkpt>
      <trkpt lat="48.08391" lon="-4.24303">
        <ele>109.73</ele>
        <time>2017-12-28T14:53:59Z</time>
      </trkpt>
      <trkpt lat="48.0838" lon="-4.24295">
        <ele>109.73</ele>
        <time>2017-12-28T14:54:10Z</time>
      </trkpt>
      <trkpt lat="48.08365" lon="-4.2428">
        <ele>111.17</ele>
        <time>2017-12-28T14:54:23Z</time>
      </trkpt>
      <trkpt lat="48.08353" lon="-4.24262">
        <ele>113.57</ele>
        <time>2017-12-28T14:54:36Z</time>
      </trkpt>
      <trkpt lat="48.0835" lon="-4.24259">
        <ele>112.61</ele>
        <time>2017-12-28T14:54:41Z</time>
      </trkpt>
      <trkpt lat="48.08341" lon="-4.24255">
        <ele>108.77</ele>
        <time>2017-12-28T14:54:51Z</time>
      </trkpt>
      <trkpt lat="48.08325" lon="-4.24238">
        <ele>107.32</ele>
        <time>2017-12-28T14:55:04Z</time>
      </trkpt>
      <trkpt lat="48.08316" lon="-4.24233">
        <ele>106.36</ele>
        <time>2017-12-28T14:55:14Z</time>
      </trkpt>
      <trkpt lat="48.083" lon="-4.24221">
        <ele>105.88</ele>
        <time>2017-12-28T14:55:27Z</time>
      </trkpt>
      <trkpt lat="48.0829" lon="-4.24207">
        <ele>103.96</ele>
        <time>2017-12-28T14:55:41Z</time>
      </trkpt>
      <trkpt lat="48.08289" lon="-4.24204">
        <ele>103.96</ele>
        <time>2017-12-28T14:55:43Z</time>
      </trkpt>
      <trkpt lat="48.08283" lon="-4.24187">
        <ele>99.15</ele>
        <time>2017-12-28T14:55:57Z</time>
      </trkpt>
      <trkpt lat="48.08282" lon="-4.24178">
        <ele>97.71</ele>
        <time>2017-12-28T14:56:06Z</time>
      </trkpt>
      <trkpt lat="48.08287" lon="-4.2416">
        <ele>100.6</ele>
        <time>2017-12-28T14:56:17Z</time>
      </trkpt>
      <trkpt lat="48.08286" lon="-4.24158">
        <ele>101.08</ele>
        <time>2017-12-28T14:56:18Z</time>
      </trkpt>
      <trkpt lat="48.08292" lon="-4.24147">
        <ele>105.4</ele>
        <time>2017-12-28T14:56:34Z</time>
      </trkpt>
      <trkpt lat="48.08297" lon="-4.24138">
        <ele>105.88</ele>
        <time>2017-12-28T14:56:42Z</time>
      </trkpt>
      <trkpt lat="48.08304" lon="-4.2413">
        <ele>105.4</ele>
        <time>2017-12-28T14:56:52Z</time>
      </trkpt>
      <trkpt lat="48.08312" lon="-4.24117">
        <ele>104.92</ele>
        <time>2017-12-28T14:57:02Z</time>
      </trkpt>
      <trkpt lat="48.08319" lon="-4.24093">
        <ele>102.52</ele>
        <time>2017-12-28T14:57:15Z</time>
      </trkpt>
      <trkpt lat="48.08327" lon="-4.24078">
        <ele>103.96</ele>
        <time>2017-12-28T14:57:27Z</time>
      </trkpt>
      <trkpt lat="48.08329" lon="-4.24073">
        <ele>104.92</ele>
        <time>2017-12-28T14:57:30Z</time>
      </trkpt>
      <trkpt lat="48.08332" lon="-4.2407">
        <ele>104.92</ele>
        <time>2017-12-28T14:57:33Z</time>
      </trkpt>
      <trkpt lat="48.08338" lon="-4.24055">
        <ele>103.96</ele>
        <time>2017-12-28T14:57:41Z</time>
      </trkpt>
      <trkpt lat="48.08339" lon="-4.24046">
        <ele>104.92</ele>
        <time>2017-12-28T14:57:45Z</time>
      </trkpt>
      <trkpt lat="48.08349" lon="-4.24031">
        <ele>106.36</ele>
        <time>2017-12-28T14:57:56Z</time>
      </trkpt>
      <trkpt lat="48.0835" lon="-4.24025">
        <ele>107.81</ele>
        <time>2017-12-28T14:57:58Z</time>
      </trkpt>
      <trkpt lat="48.08355" lon="-4.24014">
        <ele>108.77</ele>
        <time>2017-12-28T14:58:08Z</time>
      </trkpt>
      <trkpt lat="48.08362" lon="-4.23996">
        <ele>108.77</ele>
        <time>2017-12-28T14:58:21Z</time>
      </trkpt>
      <trkpt lat="48.08369" lon="-4.23978">
        <ele>107.32</ele>
        <time>2017-12-28T14:58:32Z</time>
      </trkpt>
      <trkpt lat="48.0837" lon="-4.23976">
        <ele>106.36</ele>
        <time>2017-12-28T14:58:34Z</time>
      </trkpt>
      <trkpt lat="48.08373" lon="-4.2397">
        <ele>107.32</ele>
        <time>2017-12-28T14:58:38Z</time>
      </trkpt>
      <trkpt lat="48.08382" lon="-4.23952">
        <ele>106.36</ele>
        <time>2017-12-28T14:58:51Z</time>
      </trkpt>
      <trkpt lat="48.08382" lon="-4.23952">
        <ele>106.84</ele>
        <time>2017-12-28T14:58:52Z</time>
      </trkpt>
      <trkpt lat="48.08391" lon="-4.23942">
        <ele>106.36</ele>
        <time>2017-12-28T14:59:03Z</time>
      </trkpt>
      <trkpt lat="48.08395" lon="-4.23935">
        <ele>106.36</ele>
        <time>2017-12-28T14:59:08Z</time>
      </trkpt>
      <trkpt lat="48.08398" lon="-4.23928">
        <ele>106.84</ele>
        <time>2017-12-28T14:59:14Z</time>
      </trkpt>
      <trkpt lat="48.08403" lon="-4.23913">
        <ele>104.44</ele>
        <time>2017-12-28T14:59:24Z</time>
      </trkpt>
      <trkpt lat="48.08411" lon="-4.23903">
        <ele>104.92</ele>
        <time>2017-12-28T14:59:31Z</time>
      </trkpt>
      <trkpt lat="48.08419" lon="-4.23882">
        <ele>104.92</ele>
        <time>2017-12-28T14:59:44Z</time>
      </trkpt>
      <trkpt lat="48.0842" lon="-4.23882">
        <ele>104.92</ele>
        <time>2017-12-28T14:59:45Z</time>
      </trkpt>
      <trkpt lat="48.08428" lon="-4.23868">
        <ele>103</ele>
        <time>2017-12-28T14:59:55Z</time>
      </trkpt>
      <trkpt lat="48.0843" lon="-4.23863">
        <ele>103</ele>
        <time>2017-12-28T14:59:59Z</time>
      </trkpt>
      <trkpt lat="48.08435" lon="-4.23856">
        <ele>104.92</ele>
        <time>2017-12-28T15:00:04Z</time>
      </trkpt>
      <trkpt lat="48.08438" lon="-4.23843">
        <ele>104.92</ele>
        <time>2017-12-28T15:00:10Z</time>
      </trkpt>
      <trkpt lat="48.0844" lon="-4.23835">
        <ele>105.4</ele>
        <time>2017-12-28T15:00:15Z</time>
      </trkpt>
      <trkpt lat="48.08445" lon="-4.23825">
        <ele>105.4</ele>
        <time>2017-12-28T15:00:21Z</time>
      </trkpt>
      <trkpt lat="48.08452" lon="-4.23808">
        <ele>106.84</ele>
        <time>2017-12-28T15:00:32Z</time>
      </trkpt>
      <trkpt lat="48.08455" lon="-4.23797">
        <ele>107.81</ele>
        <time>2017-12-28T15:00:39Z</time>
      </trkpt>
      <trkpt lat="48.08459" lon="-4.23791">
        <ele>108.29</ele>
        <time>2017-12-28T15:00:43Z</time>
      </trkpt>
      <trkpt lat="48.08466" lon="-4.23776">
        <ele>110.21</ele>
        <time>2017-12-28T15:00:55Z</time>
      </trkpt>
      <trkpt lat="48.0847" lon="-4.23757">
        <ele>113.09</ele>
        <time>2017-12-28T15:01:04Z</time>
      </trkpt>
      <trkpt lat="48.08471" lon="-4.23749">
        <ele>114.53</ele>
        <time>2017-12-28T15:01:08Z</time>
      </trkpt>
      <trkpt lat="48.08482" lon="-4.23726">
        <ele>119.82</ele>
        <time>2017-12-28T15:01:23Z</time>
      </trkpt>
      <trkpt lat="48.08487" lon="-4.23719">
        <ele>121.26</ele>
        <time>2017-12-28T15:01:29Z</time>
      </trkpt>
      <trkpt lat="48.08492" lon="-4.237">
        <ele>122.22</ele>
        <time>2017-12-28T15:01:42Z</time>
      </trkpt>
      <trkpt lat="48.08502" lon="-4.2368">
        <ele>123.19</ele>
        <time>2017-12-28T15:01:54Z</time>
      </trkpt>
      <trkpt lat="48.08512" lon="-4.2366">
        <ele>122.71</ele>
        <time>2017-12-28T15:02:09Z</time>
      </trkpt>
      <trkpt lat="48.08517" lon="-4.23646">
        <ele>123.67</ele>
        <time>2017-12-28T15:02:23Z</time>
      </trkpt>
      <trkpt lat="48.08517" lon="-4.23646">
        <ele>124.15</ele>
        <time>2017-12-28T15:02:30Z</time>
      </trkpt>
      <trkpt lat="48.08521" lon="-4.2364">
        <ele>123.67</ele>
        <time>2017-12-28T15:02:42Z</time>
      </trkpt>
      <trkpt lat="48.08528" lon="-4.23631">
        <ele>121.26</ele>
        <time>2017-12-28T15:02:51Z</time>
      </trkpt>
      <trkpt lat="48.08532" lon="-4.23621">
        <ele>116.46</ele>
        <time>2017-12-28T15:03:03Z</time>
      </trkpt>
      <trkpt lat="48.08532" lon="-4.23621">
        <ele>114.53</ele>
        <time>2017-12-28T15:03:15Z</time>
      </trkpt>
      <trkpt lat="48.08537" lon="-4.23615">
        <ele>113.09</ele>
        <time>2017-12-28T15:03:38Z</time>
      </trkpt>
      <trkpt lat="48.08544" lon="-4.23606">
        <ele>112.61</ele>
        <time>2017-12-28T15:03:45Z</time>
      </trkpt>
      <trkpt lat="48.08549" lon="-4.23594">
        <ele>112.61</ele>
        <time>2017-12-28T15:03:53Z</time>
      </trkpt>
      <trkpt lat="48.08553" lon="-4.23585">
        <ele>112.13</ele>
        <time>2017-12-28T15:04:03Z</time>
      </trkpt>
      <trkpt lat="48.08562" lon="-4.23566">
        <ele>112.61</ele>
        <time>2017-12-28T15:04:15Z</time>
      </trkpt>
      <trkpt lat="48.08566" lon="-4.23552">
        <ele>111.17</ele>
        <time>2017-12-28T15:04:27Z</time>
      </trkpt>
      <trkpt lat="48.08569" lon="-4.23549">
        <ele>108.29</ele>
        <time>2017-12-28T15:04:48Z</time>
      </trkpt>
      <trkpt lat="48.08577" lon="-4.23535">
        <ele>109.73</ele>
        <time>2017-12-28T15:05:00Z</time>
      </trkpt>
      <trkpt lat="48.08577" lon="-4.2353">
        <ele>108.29</ele>
        <time>2017-12-28T15:05:09Z</time>
      </trkpt>
      <trkpt lat="48.0858" lon="-4.23522">
        <ele>107.32</ele>
        <time>2017-12-28T15:05:22Z</time>
      </trkpt>
      <trkpt lat="48.08582" lon="-4.23518">
        <ele>108.29</ele>
        <time>2017-12-28T15:05:43Z</time>
      </trkpt>
      <trkpt lat="48.08583" lon="-4.23513">
        <ele>111.17</ele>
        <time>2017-12-28T15:06:13Z</time>
      </trkpt>
      <trkpt lat="48.08583" lon="-4.23513">
        <ele>112.61</ele>
        <time>2017-12-28T15:06:38Z</time>
      </trkpt>
      <trkpt lat="48.08583" lon="-4.23512">
        <ele>114.53</ele>
        <time>2017-12-28T15:07:06Z</time>
      </trkpt>
      <trkpt lat="48.08584" lon="-4.2351">
        <ele>115.98</ele>
        <time>2017-12-28T15:07:29Z</time>
      </trkpt>
      <trkpt lat="48.08584" lon="-4.23507">
        <ele>117.9</ele>
        <time>2017-12-28T15:07:44Z</time>
      </trkpt>
      <trkpt lat="48.08591" lon="-4.235">
        <ele>116.94</ele>
        <time>2017-12-28T15:07:56Z</time>
      </trkpt>
      <trkpt lat="48.08596" lon="-4.23488">
        <ele>114.53</ele>
        <time>2017-12-28T15:08:06Z</time>
      </trkpt>
      <trkpt lat="48.08599" lon="-4.23485">
        <ele>115.01</ele>
        <time>2017-12-28T15:08:10Z</time>
      </trkpt>
      <trkpt lat="48.08601" lon="-4.23486">
        <ele>115.01</ele>
        <time>2017-12-28T15:08:14Z</time>
      </trkpt>
      <trkpt lat="48.08604" lon="-4.23479">
        <ele>115.5</ele>
        <time>2017-12-28T15:08:18Z</time>
      </trkpt>
      <trkpt lat="48.08605" lon="-4.2347">
        <ele>115.01</ele>
        <time>2017-12-28T15:08:22Z</time>
      </trkpt>
      <trkpt lat="48.08613" lon="-4.23455">
        <ele>115.01</ele>
        <time>2017-12-28T15:08:32Z</time>
      </trkpt>
      <trkpt lat="48.08615" lon="-4.23453">
        <ele>115.01</ele>
        <time>2017-12-28T15:08:35Z</time>
      </trkpt>
      <trkpt lat="48.08617" lon="-4.23446">
        <ele>113.57</ele>
        <time>2017-12-28T15:08:39Z</time>
      </trkpt>
      <trkpt lat="48.08622" lon="-4.23439">
        <ele>111.17</ele>
        <time>2017-12-28T15:08:46Z</time>
      </trkpt>
      <trkpt lat="48.08624" lon="-4.23433">
        <ele>110.69</ele>
        <time>2017-12-28T15:08:49Z</time>
      </trkpt>
      <trkpt lat="48.08626" lon="-4.23427">
        <ele>110.69</ele>
        <time>2017-12-28T15:08:52Z</time>
      </trkpt>
      <trkpt lat="48.08631" lon="-4.23415">
        <ele>110.21</ele>
        <time>2017-12-28T15:09:01Z</time>
      </trkpt>
      <trkpt lat="48.08633" lon="-4.23412">
        <ele>110.21</ele>
        <time>2017-12-28T15:09:03Z</time>
      </trkpt>
      <trkpt lat="48.08641" lon="-4.23389">
        <ele>110.21</ele>
        <time>2017-12-28T15:09:16Z</time>
      </trkpt>
      <trkpt lat="48.08648" lon="-4.23377">
        <ele>111.17</ele>
        <time>2017-12-28T15:09:26Z</time>
      </trkpt>
      <trkpt lat="48.08655" lon="-4.23353">
        <ele>109.25</ele>
        <time>2017-12-28T15:09:38Z</time>
      </trkpt>
      <trkpt lat="48.0866" lon="-4.23338">
        <ele>107.81</ele>
        <time>2017-12-28T15:09:47Z</time>
      </trkpt>
      <trkpt lat="48.08668" lon="-4.23324">
        <ele>106.84</ele>
        <time>2017-12-28T15:09:57Z</time>
      </trkpt>
      <trkpt lat="48.08679" lon="-4.23308">
        <ele>104.44</ele>
        <time>2017-12-28T15:10:09Z</time>
      </trkpt>
      <trkpt lat="48.08686" lon="-4.23296">
        <ele>103.48</ele>
        <time>2017-12-28T15:10:16Z</time>
      </trkpt>
      <trkpt lat="48.08694" lon="-4.23278">
        <ele>101.08</ele>
        <time>2017-12-28T15:10:29Z</time>
      </trkpt>
      <trkpt lat="48.08695" lon="-4.23271">
        <ele>101.56</ele>
        <time>2017-12-28T15:10:32Z</time>
      </trkpt>
      <trkpt lat="48.08703" lon="-4.23238">
        <ele>106.84</ele>
        <time>2017-12-28T15:10:47Z</time>
      </trkpt>
      <trkpt lat="48.08708" lon="-4.23233">
        <ele>106.84</ele>
        <time>2017-12-28T15:10:52Z</time>
      </trkpt>
      <trkpt lat="48.08715" lon="-4.23224">
        <ele>106.84</ele>
        <time>2017-12-28T15:11:02Z</time>
      </trkpt>
      <trkpt lat="48.08723" lon="-4.23211">
        <ele>107.32</ele>
        <time>2017-12-28T15:11:12Z</time>
      </trkpt>
      <trkpt lat="48.08726" lon="-4.23205">
        <ele>108.77</ele>
        <time>2017-12-28T15:11:16Z</time>
      </trkpt>
      <trkpt lat="48.08731" lon="-4.23192">
        <ele>110.69</ele>
        <time>2017-12-28T15:11:23Z</time>
      </trkpt>
      <trkpt lat="48.08736" lon="-4.23178">
        <ele>112.13</ele>
        <time>2017-12-28T15:11:31Z</time>
      </trkpt>
      <trkpt lat="48.08744" lon="-4.23161">
        <ele>111.17</ele>
        <time>2017-12-28T15:11:42Z</time>
      </trkpt>
      <trkpt lat="48.08752" lon="-4.23144">
        <ele>111.17</ele>
        <time>2017-12-28T15:11:54Z</time>
      </trkpt>
      <trkpt lat="48.08753" lon="-4.23142">
        <ele>111.65</ele>
        <time>2017-12-28T15:11:55Z</time>
      </trkpt>
      <trkpt lat="48.08753" lon="-4.23135">
        <ele>110.69</ele>
        <time>2017-12-28T15:11:59Z</time>
      </trkpt>
      <trkpt lat="48.08756" lon="-4.23134">
        <ele>111.17</ele>
        <time>2017-12-28T15:12:02Z</time>
      </trkpt>
      <trkpt lat="48.08759" lon="-4.23125">
        <ele>113.09</ele>
        <time>2017-12-28T15:12:07Z</time>
      </trkpt>
      <trkpt lat="48.08761" lon="-4.23114">
        <ele>113.09</ele>
        <time>2017-12-28T15:12:11Z</time>
      </trkpt>
      <trkpt lat="48.08767" lon="-4.23107">
        <ele>114.53</ele>
        <time>2017-12-28T15:12:17Z</time>
      </trkpt>
      <trkpt lat="48.08771" lon="-4.23088">
        <ele>116.46</ele>
        <time>2017-12-28T15:12:25Z</time>
      </trkpt>
      <trkpt lat="48.08775" lon="-4.2308">
        <ele>117.42</ele>
        <time>2017-12-28T15:12:30Z</time>
      </trkpt>
      <trkpt lat="48.08779" lon="-4.23067">
        <ele>117.9</ele>
        <time>2017-12-28T15:12:39Z</time>
      </trkpt>
      <trkpt lat="48.0878" lon="-4.23061">
        <ele>117.9</ele>
        <time>2017-12-28T15:12:42Z</time>
      </trkpt>
      <trkpt lat="48.08777" lon="-4.23053">
        <ele>119.34</ele>
        <time>2017-12-28T15:12:47Z</time>
      </trkpt>
      <trkpt lat="48.08775" lon="-4.23049">
        <ele>119.34</ele>
        <time>2017-12-28T15:12:51Z</time>
      </trkpt>
      <trkpt lat="48.08765" lon="-4.2304">
        <ele>117.9</ele>
        <time>2017-12-28T15:13:03Z</time>
      </trkpt>
      <trkpt lat="48.08761" lon="-4.23038">
        <ele>117.9</ele>
        <time>2017-12-28T15:13:09Z</time>
      </trkpt>
      <trkpt lat="48.08752" lon="-4.23026">
        <ele>117.9</ele>
        <time>2017-12-28T15:13:21Z</time>
      </trkpt>
      <trkpt lat="48.08746" lon="-4.23021">
        <ele>115.98</ele>
        <time>2017-12-28T15:13:32Z</time>
      </trkpt>
      <trkpt lat="48.08736" lon="-4.2301">
        <ele>113.09</ele>
        <time>2017-12-28T15:13:44Z</time>
      </trkpt>
      <trkpt lat="48.08732" lon="-4.23006">
        <ele>112.13</ele>
        <time>2017-12-28T15:13:48Z</time>
      </trkpt>
      <trkpt lat="48.08722" lon="-4.22993">
        <ele>111.17</ele>
        <time>2017-12-28T15:13:59Z</time>
      </trkpt>
      <trkpt lat="48.08706" lon="-4.22976">
        <ele>113.57</ele>
        <time>2017-12-28T15:14:11Z</time>
      </trkpt>
      <trkpt lat="48.08693" lon="-4.22962">
        <ele>114.05</ele>
        <time>2017-12-28T15:14:25Z</time>
      </trkpt>
      <trkpt lat="48.08683" lon="-4.2295">
        <ele>115.01</ele>
        <time>2017-12-28T15:14:37Z</time>
      </trkpt>
      <trkpt lat="48.08668" lon="-4.22933">
        <ele>114.05</ele>
        <time>2017-12-28T15:14:50Z</time>
      </trkpt>
      <trkpt lat="48.08658" lon="-4.22921">
        <ele>113.57</ele>
        <time>2017-12-28T15:15:02Z</time>
      </trkpt>
      <trkpt lat="48.08647" lon="-4.22906">
        <ele>112.61</ele>
        <time>2017-12-28T15:15:13Z</time>
      </trkpt>
      <trkpt lat="48.08638" lon="-4.22894">
        <ele>117.42</ele>
        <time>2017-12-28T15:15:24Z</time>
      </trkpt>
      <trkpt lat="48.08637" lon="-4.22891">
        <ele>118.38</ele>
        <time>2017-12-28T15:15:26Z</time>
      </trkpt>
      <trkpt lat="48.08636" lon="-4.22866">
        <ele>116.46</ele>
        <time>2017-12-28T15:15:37Z</time>
      </trkpt>
      <trkpt lat="48.08643" lon="-4.22849">
        <ele>114.05</ele>
        <time>2017-12-28T15:15:50Z</time>
      </trkpt>
      <trkpt lat="48.08651" lon="-4.22834">
        <ele>112.61</ele>
        <time>2017-12-28T15:16:02Z</time>
      </trkpt>
      <trkpt lat="48.08654" lon="-4.22826">
        <ele>112.61</ele>
        <time>2017-12-28T15:16:07Z</time>
      </trkpt>
      <trkpt lat="48.08664" lon="-4.22811">
        <ele>112.61</ele>
        <time>2017-12-28T15:16:19Z</time>
      </trkpt>
      <trkpt lat="48.08666" lon="-4.22804">
        <ele>112.61</ele>
        <time>2017-12-28T15:16:24Z</time>
      </trkpt>
      <trkpt lat="48.08674" lon="-4.22791">
        <ele>111.65</ele>
        <time>2017-12-28T15:16:35Z</time>
      </trkpt>
      <trkpt lat="48.08682" lon="-4.22774">
        <ele>110.21</ele>
        <time>2017-12-28T15:16:48Z</time>
      </trkpt>
      <trkpt lat="48.08692" lon="-4.22759">
        <ele>110.21</ele>
        <time>2017-12-28T15:17:00Z</time>
      </trkpt>
      <trkpt lat="48.087" lon="-4.22743">
        <ele>108.29</ele>
        <time>2017-12-28T15:17:11Z</time>
      </trkpt>
      <trkpt lat="48.08706" lon="-4.22733">
        <ele>108.29</ele>
        <time>2017-12-28T15:17:19Z</time>
      </trkpt>
      <trkpt lat="48.08708" lon="-4.2273">
        <ele>108.29</ele>
        <time>2017-12-28T15:17:21Z</time>
      </trkpt>
      <trkpt lat="48.08718" lon="-4.22711">
        <ele>105.88</ele>
        <time>2017-12-28T15:17:34Z</time>
      </trkpt>
      <trkpt lat="48.08728" lon="-4.22692">
        <ele>103.48</ele>
        <time>2017-12-28T15:17:47Z</time>
      </trkpt>
      <trkpt lat="48.08728" lon="-4.2269">
        <ele>103</ele>
        <time>2017-12-28T15:17:48Z</time>
      </trkpt>
      <trkpt lat="48.08736" lon="-4.22677">
        <ele>103</ele>
        <time>2017-12-28T15:17:59Z</time>
      </trkpt>
      <trkpt lat="48.08744" lon="-4.22661">
        <ele>100.11</ele>
        <time>2017-12-28T15:18:13Z</time>
      </trkpt>
      <trkpt lat="48.08756" lon="-4.22644">
        <ele>95.31</ele>
        <time>2017-12-28T15:18:28Z</time>
      </trkpt>
      <trkpt lat="48.08764" lon="-4.22627">
        <ele>103</ele>
        <time>2017-12-28T15:18:41Z</time>
      </trkpt>
      <trkpt lat="48.08772" lon="-4.22608">
        <ele>110.21</ele>
        <time>2017-12-28T15:18:54Z</time>
      </trkpt>
      <trkpt lat="48.0878" lon="-4.22593">
        <ele>110.21</ele>
        <time>2017-12-28T15:19:05Z</time>
      </trkpt>
      <trkpt lat="48.08788" lon="-4.22579">
        <ele>108.77</ele>
        <time>2017-12-28T15:19:17Z</time>
      </trkpt>
      <trkpt lat="48.08798" lon="-4.22564">
        <ele>108.29</ele>
        <time>2017-12-28T15:19:28Z</time>
      </trkpt>
      <trkpt lat="48.08807" lon="-4.22545">
        <ele>111.17</ele>
        <time>2017-12-28T15:19:42Z</time>
      </trkpt>
      <trkpt lat="48.08816" lon="-4.22528">
        <ele>109.73</ele>
        <time>2017-12-28T15:19:56Z</time>
      </trkpt>
      <trkpt lat="48.08825" lon="-4.2251">
        <ele>108.77</ele>
        <time>2017-12-28T15:20:09Z</time>
      </trkpt>
      <trkpt lat="48.08833" lon="-4.22497">
        <ele>109.73</ele>
        <time>2017-12-28T15:20:20Z</time>
      </trkpt>
      <trkpt lat="48.0884" lon="-4.22482">
        <ele>110.69</ele>
        <time>2017-12-28T15:20:33Z</time>
      </trkpt>
      <trkpt lat="48.08851" lon="-4.22463">
        <ele>112.61</ele>
        <time>2017-12-28T15:20:47Z</time>
      </trkpt>
      <trkpt lat="48.08855" lon="-4.22456">
        <ele>113.09</ele>
        <time>2017-12-28T15:20:52Z</time>
      </trkpt>
      <trkpt lat="48.08861" lon="-4.22443">
        <ele>115.01</ele>
        <time>2017-12-28T15:21:01Z</time>
      </trkpt>
      <trkpt lat="48.08871" lon="-4.22423">
        <ele>117.9</ele>
        <time>2017-12-28T15:21:17Z</time>
      </trkpt>
      <trkpt lat="48.08876" lon="-4.22413">
        <ele>121.26</ele>
        <time>2017-12-28T15:21:24Z</time>
      </trkpt>
      <trkpt lat="48.08882" lon="-4.22407">
        <ele>124.15</ele>
        <time>2017-12-28T15:21:37Z</time>
      </trkpt>
      <trkpt lat="48.08884" lon="-4.22403">
        <ele>126.55</ele>
        <time>2017-12-28T15:21:48Z</time>
      </trkpt>
      <trkpt lat="48.08886" lon="-4.22389">
        <ele>128.47</ele>
        <time>2017-12-28T15:21:59Z</time>
      </trkpt>
      <trkpt lat="48.08889" lon="-4.22376">
        <ele>128.47</ele>
        <time>2017-12-28T15:22:10Z</time>
      </trkpt>
      <trkpt lat="48.0889" lon="-4.22374">
        <ele>128.47</ele>
        <time>2017-12-28T15:22:14Z</time>
      </trkpt>
      <trkpt lat="48.08897" lon="-4.22379">
        <ele>127.51</ele>
        <time>2017-12-28T15:22:25Z</time>
      </trkpt>
      <trkpt lat="48.08898" lon="-4.2238">
        <ele>127.03</ele>
        <time>2017-12-28T15:22:28Z</time>
      </trkpt>
      <trkpt lat="48.08905" lon="-4.22383">
        <ele>127.51</ele>
        <time>2017-12-28T15:22:39Z</time>
      </trkpt>
      <trkpt lat="48.08912" lon="-4.22384">
        <ele>127.03</ele>
        <time>2017-12-28T15:22:45Z</time>
      </trkpt>
      <trkpt lat="48.08925" lon="-4.22386">
        <ele>127.03</ele>
        <time>2017-12-28T15:22:56Z</time>
      </trkpt>
      <trkpt lat="48.08941" lon="-4.22385">
        <ele>130.4</ele>
        <time>2017-12-28T15:23:08Z</time>
      </trkpt>
      <trkpt lat="48.08965" lon="-4.22383">
        <ele>137.13</ele>
        <time>2017-12-28T15:23:19Z</time>
      </trkpt>
      <trkpt lat="48.08975" lon="-4.22384">
        <ele>139.53</ele>
        <time>2017-12-28T15:23:30Z</time>
      </trkpt>
      <trkpt lat="48.08985" lon="-4.22387">
        <ele>139.53</ele>
        <time>2017-12-28T15:23:40Z</time>
      </trkpt>
      <trkpt lat="48.08986" lon="-4.22387">
        <ele>139.05</ele>
        <time>2017-12-28T15:23:41Z</time>
      </trkpt>
      <trkpt lat="48.09007" lon="-4.22391">
        <ele>139.05</ele>
        <time>2017-12-28T15:23:54Z</time>
      </trkpt>
      <trkpt lat="48.09017" lon="-4.22399">
        <ele>137.61</ele>
        <time>2017-12-28T15:24:06Z</time>
      </trkpt>
      <trkpt lat="48.09022" lon="-4.22405">
        <ele>136.64</ele>
        <time>2017-12-28T15:24:17Z</time>
      </trkpt>
      <trkpt lat="48.0903" lon="-4.22415">
        <ele>138.09</ele>
        <time>2017-12-28T15:24:34Z</time>
      </trkpt>
      <trkpt lat="48.09028" lon="-4.22426">
        <ele>135.68</ele>
        <time>2017-12-28T15:24:44Z</time>
      </trkpt>
      <trkpt lat="48.09032" lon="-4.22432">
        <ele>134.24</ele>
        <time>2017-12-28T15:24:57Z</time>
      </trkpt>
      <trkpt lat="48.09037" lon="-4.22426">
        <ele>134.72</ele>
        <time>2017-12-28T15:25:09Z</time>
      </trkpt>
      <trkpt lat="48.09039" lon="-4.22422">
        <ele>134.72</ele>
        <time>2017-12-28T15:25:14Z</time>
      </trkpt>
      <trkpt lat="48.09057" lon="-4.22405">
        <ele>135.68</ele>
        <time>2017-12-28T15:25:29Z</time>
      </trkpt>
      <trkpt lat="48.09067" lon="-4.22389">
        <ele>136.16</ele>
        <time>2017-12-28T15:25:40Z</time>
      </trkpt>
      <trkpt lat="48.0907" lon="-4.22387">
        <ele>136.16</ele>
        <time>2017-12-28T15:25:44Z</time>
      </trkpt>
      <trkpt lat="48.09073" lon="-4.22384">
        <ele>135.2</ele>
        <time>2017-12-28T15:25:48Z</time>
      </trkpt>
      <trkpt lat="48.09078" lon="-4.22378">
        <ele>134.24</ele>
        <time>2017-12-28T15:25:55Z</time>
      </trkpt>
      <trkpt lat="48.09085" lon="-4.22368">
        <ele>135.2</ele>
        <time>2017-12-28T15:26:05Z</time>
      </trkpt>
      <trkpt lat="48.09091" lon="-4.22365">
        <ele>134.24</ele>
        <time>2017-12-28T15:26:15Z</time>
      </trkpt>
      <trkpt lat="48.09097" lon="-4.22355">
        <ele>132.32</ele>
        <time>2017-12-28T15:26:27Z</time>
      </trkpt>
      <trkpt lat="48.09106" lon="-4.22344">
        <ele>132.8</ele>
        <time>2017-12-28T15:26:38Z</time>
      </trkpt>
      <trkpt lat="48.09106" lon="-4.22343">
        <ele>133.28</ele>
        <time>2017-12-28T15:26:39Z</time>
      </trkpt>
      <trkpt lat="48.0911" lon="-4.22341">
        <ele>133.76</ele>
        <time>2017-12-28T15:26:43Z</time>
      </trkpt>
      <trkpt lat="48.09112" lon="-4.22339">
        <ele>134.72</ele>
        <time>2017-12-28T15:26:46Z</time>
      </trkpt>
      <trkpt lat="48.09116" lon="-4.22333">
        <ele>135.2</ele>
        <time>2017-12-28T15:26:51Z</time>
      </trkpt>
      <trkpt lat="48.0912" lon="-4.22327">
        <ele>135.68</ele>
        <time>2017-12-28T15:26:57Z</time>
      </trkpt>
      <trkpt lat="48.09122" lon="-4.22323">
        <ele>135.68</ele>
        <time>2017-12-28T15:27:00Z</time>
      </trkpt>
      <trkpt lat="48.09124" lon="-4.22321">
        <ele>135.2</ele>
        <time>2017-12-28T15:27:02Z</time>
      </trkpt>
      <trkpt lat="48.09135" lon="-4.22306">
        <ele>136.16</ele>
        <time>2017-12-28T15:27:16Z</time>
      </trkpt>
      <trkpt lat="48.09136" lon="-4.22305">
        <ele>136.16</ele>
        <time>2017-12-28T15:27:17Z</time>
      </trkpt>
      <trkpt lat="48.09142" lon="-4.22302">
        <ele>136.64</ele>
        <time>2017-12-28T15:27:20Z</time>
      </trkpt>
      <trkpt lat="48.09147" lon="-4.22294">
        <ele>139.05</ele>
        <time>2017-12-28T15:27:25Z</time>
      </trkpt>
      <trkpt lat="48.09153" lon="-4.2229">
        <ele>139.53</ele>
        <time>2017-12-28T15:27:29Z</time>
      </trkpt>
      <trkpt lat="48.09155" lon="-4.22287">
        <ele>140.49</ele>
        <time>2017-12-28T15:27:31Z</time>
      </trkpt>
      <trkpt lat="48.09169" lon="-4.22271">
        <ele>144.34</ele>
        <time>2017-12-28T15:27:43Z</time>
      </trkpt>
      <trkpt lat="48.09173" lon="-4.22266">
        <ele>144.34</ele>
        <time>2017-12-28T15:27:47Z</time>
      </trkpt>
      <trkpt lat="48.09176" lon="-4.22259">
        <ele>143.85</ele>
        <time>2017-12-28T15:27:51Z</time>
      </trkpt>
      <trkpt lat="48.09184" lon="-4.22244">
        <ele>143.37</ele>
        <time>2017-12-28T15:28:03Z</time>
      </trkpt>
      <trkpt lat="48.09192" lon="-4.22234">
        <ele>141.93</ele>
        <time>2017-12-28T15:28:10Z</time>
      </trkpt>
      <trkpt lat="48.092" lon="-4.22219">
        <ele>141.45</ele>
        <time>2017-12-28T15:28:23Z</time>
      </trkpt>
      <trkpt lat="48.09208" lon="-4.22204">
        <ele>138.57</ele>
        <time>2017-12-28T15:28:36Z</time>
      </trkpt>
      <trkpt lat="48.09222" lon="-4.22187">
        <ele>141.93</ele>
        <time>2017-12-28T15:28:49Z</time>
      </trkpt>
      <trkpt lat="48.09235" lon="-4.2217">
        <ele>140.49</ele>
        <time>2017-12-28T15:29:02Z</time>
      </trkpt>
      <trkpt lat="48.09246" lon="-4.22152">
        <ele>138.57</ele>
        <time>2017-12-28T15:29:16Z</time>
      </trkpt>
      <trkpt lat="48.09259" lon="-4.22135">
        <ele>137.61</ele>
        <time>2017-12-28T15:29:30Z</time>
      </trkpt>
      <trkpt lat="48.09262" lon="-4.22118">
        <ele>135.2</ele>
        <time>2017-12-28T15:29:42Z</time>
      </trkpt>
      <trkpt lat="48.09274" lon="-4.22099">
        <ele>133.76</ele>
        <time>2017-12-28T15:29:56Z</time>
      </trkpt>
      <trkpt lat="48.09281" lon="-4.22079">
        <ele>132.32</ele>
        <time>2017-12-28T15:30:10Z</time>
      </trkpt>
      <trkpt lat="48.09294" lon="-4.22056">
        <ele>131.84</ele>
        <time>2017-12-28T15:30:25Z</time>
      </trkpt>
      <trkpt lat="48.09295" lon="-4.22055">
        <ele>131.84</ele>
        <time>2017-12-28T15:30:26Z</time>
      </trkpt>
      <trkpt lat="48.093" lon="-4.22049">
        <ele>132.32</ele>
        <time>2017-12-28T15:30:30Z</time>
      </trkpt>
      <trkpt lat="48.09303" lon="-4.22045">
        <ele>134.24</ele>
        <time>2017-12-28T15:30:32Z</time>
      </trkpt>
      <trkpt lat="48.09309" lon="-4.22035">
        <ele>138.09</ele>
        <time>2017-12-28T15:30:39Z</time>
      </trkpt>
      <trkpt lat="48.09319" lon="-4.22026">
        <ele>143.85</ele>
        <time>2017-12-28T15:30:45Z</time>
      </trkpt>
      <trkpt lat="48.09323" lon="-4.22023">
        <ele>144.82</ele>
        <time>2017-12-28T15:30:48Z</time>
      </trkpt>
      <trkpt lat="48.09329" lon="-4.22005">
        <ele>146.26</ele>
        <time>2017-12-28T15:30:58Z</time>
      </trkpt>
      <trkpt lat="48.09341" lon="-4.21984">
        <ele>146.74</ele>
        <time>2017-12-28T15:31:14Z</time>
      </trkpt>
      <trkpt lat="48.09348" lon="-4.21963">
        <ele>147.7</ele>
        <time>2017-12-28T15:31:27Z</time>
      </trkpt>
      <trkpt lat="48.09346" lon="-4.21947">
        <ele>148.66</ele>
        <time>2017-12-28T15:31:39Z</time>
      </trkpt>
      <trkpt lat="48.09346" lon="-4.21941">
        <ele>149.62</ele>
        <time>2017-12-28T15:31:44Z</time>
      </trkpt>
      <trkpt lat="48.09342" lon="-4.21916">
        <ele>150.1</ele>
        <time>2017-12-28T15:31:57Z</time>
      </trkpt>
      <trkpt lat="48.09338" lon="-4.21898">
        <ele>151.06</ele>
        <time>2017-12-28T15:32:07Z</time>
      </trkpt>
      <trkpt lat="48.09336" lon="-4.21883">
        <ele>151.54</ele>
        <time>2017-12-28T15:32:17Z</time>
      </trkpt>
      <trkpt lat="48.09335" lon="-4.21879">
        <ele>151.54</ele>
        <time>2017-12-28T15:32:19Z</time>
      </trkpt>
      <trkpt lat="48.09328" lon="-4.21851">
        <ele>154.91</ele>
        <time>2017-12-28T15:32:30Z</time>
      </trkpt>
      <trkpt lat="48.09326" lon="-4.2184">
        <ele>156.83</ele>
        <time>2017-12-28T15:32:40Z</time>
      </trkpt>
      <trkpt lat="48.09324" lon="-4.21823">
        <ele>158.27</ele>
        <time>2017-12-28T15:32:52Z</time>
      </trkpt>
      <trkpt lat="48.09326" lon="-4.21809">
        <ele>155.39</ele>
        <time>2017-12-28T15:33:04Z</time>
      </trkpt>
      <trkpt lat="48.09323" lon="-4.21793">
        <ele>152.99</ele>
        <time>2017-12-28T15:33:13Z</time>
      </trkpt>
      <trkpt lat="48.09321" lon="-4.21784">
        <ele>152.51</ele>
        <time>2017-12-28T15:33:16Z</time>
      </trkpt>
      <trkpt lat="48.0931" lon="-4.21747">
        <ele>156.35</ele>
        <time>2017-12-28T15:33:29Z</time>
      </trkpt>
      <trkpt lat="48.09309" lon="-4.2173">
        <ele>154.43</ele>
        <time>2017-12-28T15:33:42Z</time>
      </trkpt>
      <trkpt lat="48.09305" lon="-4.21713">
        <ele>154.43</ele>
        <time>2017-12-28T15:33:56Z</time>
      </trkpt>
      <trkpt lat="48.09302" lon="-4.21701">
        <ele>153.95</ele>
        <time>2017-12-28T15:34:06Z</time>
      </trkpt>
      <trkpt lat="48.09299" lon="-4.21689">
        <ele>152.03</ele>
        <time>2017-12-28T15:34:10Z</time>
      </trkpt>
      <trkpt lat="48.09295" lon="-4.21653">
        <ele>151.54</ele>
        <time>2017-12-28T15:34:23Z</time>
      </trkpt>
      <trkpt lat="48.09299" lon="-4.21635">
        <ele>148.18</ele>
        <time>2017-12-28T15:34:35Z</time>
      </trkpt>
      <trkpt lat="48.09302" lon="-4.21622">
        <ele>144.34</ele>
        <time>2017-12-28T15:34:43Z</time>
      </trkpt>
      <trkpt lat="48.09309" lon="-4.21605">
        <ele>146.74</ele>
        <time>2017-12-28T15:34:54Z</time>
      </trkpt>
      <trkpt lat="48.09313" lon="-4.21593">
        <ele>145.78</ele>
        <time>2017-12-28T15:35:05Z</time>
      </trkpt>
      <trkpt lat="48.09313" lon="-4.21573">
        <ele>146.26</ele>
        <time>2017-12-28T15:35:13Z</time>
      </trkpt>
      <trkpt lat="48.09314" lon="-4.21566">
        <ele>146.74</ele>
        <time>2017-12-28T15:35:16Z</time>
      </trkpt>
      <trkpt lat="48.09314" lon="-4.21541">
        <ele>147.7</ele>
        <time>2017-12-28T15:35:29Z</time>
      </trkpt>
      <trkpt lat="48.09314" lon="-4.21541">
        <ele>147.7</ele>
        <time>2017-12-28T15:35:30Z</time>
      </trkpt>
      <trkpt lat="48.09319" lon="-4.21518">
        <ele>150.1</ele>
        <time>2017-12-28T15:35:41Z</time>
      </trkpt>
      <trkpt lat="48.09321" lon="-4.21504">
        <ele>150.58</ele>
        <time>2017-12-28T15:35:50Z</time>
      </trkpt>
      <trkpt lat="48.09322" lon="-4.21502">
        <ele>150.58</ele>
        <time>2017-12-28T15:35:52Z</time>
      </trkpt>
      <trkpt lat="48.09318" lon="-4.21478">
        <ele>155.39</ele>
        <time>2017-12-28T15:36:02Z</time>
      </trkpt>
      <trkpt lat="48.09317" lon="-4.2146">
        <ele>155.87</ele>
        <time>2017-12-28T15:36:12Z</time>
      </trkpt>
      <trkpt lat="48.09319" lon="-4.21455">
        <ele>155.87</ele>
        <time>2017-12-28T15:36:15Z</time>
      </trkpt>
      <trkpt lat="48.0932" lon="-4.21451">
        <ele>155.39</ele>
        <time>2017-12-28T15:36:18Z</time>
      </trkpt>
      <trkpt lat="48.09315" lon="-4.21429">
        <ele>155.87</ele>
        <time>2017-12-28T15:36:30Z</time>
      </trkpt>
      <trkpt lat="48.09317" lon="-4.21418">
        <ele>154.91</ele>
        <time>2017-12-28T15:36:40Z</time>
      </trkpt>
      <trkpt lat="48.09315" lon="-4.21401">
        <ele>152.99</ele>
        <time>2017-12-28T15:36:48Z</time>
      </trkpt>
      <trkpt lat="48.09312" lon="-4.21385">
        <ele>151.06</ele>
        <time>2017-12-28T15:37:00Z</time>
      </trkpt>
      <trkpt lat="48.09308" lon="-4.21369">
        <ele>148.66</ele>
        <time>2017-12-28T15:37:11Z</time>
      </trkpt>
      <trkpt lat="48.0931" lon="-4.2136">
        <ele>148.66</ele>
        <time>2017-12-28T15:37:15Z</time>
      </trkpt>
      <trkpt lat="48.09312" lon="-4.21337">
        <ele>148.66</ele>
        <time>2017-12-28T15:37:25Z</time>
      </trkpt>
      <trkpt lat="48.09313" lon="-4.21328">
        <ele>145.78</ele>
        <time>2017-12-28T15:37:39Z</time>
      </trkpt>
      <trkpt lat="48.09321" lon="-4.21322">
        <ele>140.49</ele>
        <time>2017-12-28T15:37:53Z</time>
      </trkpt>
      <trkpt lat="48.0933" lon="-4.21319">
        <ele>139.05</ele>
        <time>2017-12-28T15:37:58Z</time>
      </trkpt>
      <trkpt lat="48.09349" lon="-4.21313">
        <ele>138.09</ele>
        <time>2017-12-28T15:38:08Z</time>
      </trkpt>
      <trkpt lat="48.09364" lon="-4.21311">
        <ele>138.57</ele>
        <time>2017-12-28T15:38:20Z</time>
      </trkpt>
      <trkpt lat="48.09372" lon="-4.21308">
        <ele>139.05</ele>
        <time>2017-12-28T15:38:25Z</time>
      </trkpt>
      <trkpt lat="48.09385" lon="-4.21293">
        <ele>145.78</ele>
        <time>2017-12-28T15:38:33Z</time>
      </trkpt>
      <trkpt lat="48.09388" lon="-4.21287">
        <ele>148.18</ele>
        <time>2017-12-28T15:38:45Z</time>
      </trkpt>
      <trkpt lat="48.09388" lon="-4.21287">
        <ele>148.18</ele>
        <time>2017-12-28T15:38:46Z</time>
      </trkpt>
      <trkpt lat="48.094" lon="-4.21276">
        <ele>148.66</ele>
        <time>2017-12-28T15:38:58Z</time>
      </trkpt>
      <trkpt lat="48.0941" lon="-4.21273">
        <ele>148.18</ele>
        <time>2017-12-28T15:39:10Z</time>
      </trkpt>
      <trkpt lat="48.09421" lon="-4.21272">
        <ele>148.66</ele>
        <time>2017-12-28T15:39:20Z</time>
      </trkpt>
      <trkpt lat="48.09433" lon="-4.21268">
        <ele>146.74</ele>
        <time>2017-12-28T15:39:32Z</time>
      </trkpt>
      <trkpt lat="48.09442" lon="-4.21266">
        <ele>144.82</ele>
        <time>2017-12-28T15:39:43Z</time>
      </trkpt>
      <trkpt lat="48.09449" lon="-4.21263">
        <ele>145.78</ele>
        <time>2017-12-28T15:39:51Z</time>
      </trkpt>
      <trkpt lat="48.09481" lon="-4.2126">
        <ele>150.1</ele>
        <time>2017-12-28T15:40:05Z</time>
      </trkpt>
      <trkpt lat="48.0949" lon="-4.21255">
        <ele>151.54</ele>
        <time>2017-12-28T15:40:16Z</time>
      </trkpt>
      <trkpt lat="48.09503" lon="-4.21253">
        <ele>152.99</ele>
        <time>2017-12-28T15:40:26Z</time>
      </trkpt>
      <trkpt lat="48.09516" lon="-4.21253">
        <ele>152.99</ele>
        <time>2017-12-28T15:40:37Z</time>
      </trkpt>
      <trkpt lat="48.09516" lon="-4.21254">
        <ele>152.99</ele>
        <time>2017-12-28T15:40:39Z</time>
      </trkpt>
      <trkpt lat="48.0952" lon="-4.21253">
        <ele>152.03</ele>
        <time>2017-12-28T15:40:45Z</time>
      </trkpt>
      <trkpt lat="48.0953" lon="-4.21252">
        <ele>151.54</ele>
        <time>2017-12-28T15:40:51Z</time>
      </trkpt>
      <trkpt lat="48.09542" lon="-4.2125">
        <ele>150.58</ele>
        <time>2017-12-28T15:41:02Z</time>
      </trkpt>
      <trkpt lat="48.09559" lon="-4.21249">
        <ele>152.03</ele>
        <time>2017-12-28T15:41:13Z</time>
      </trkpt>
      <trkpt lat="48.09573" lon="-4.21249">
        <ele>155.39</ele>
        <time>2017-12-28T15:41:24Z</time>
      </trkpt>
      <trkpt lat="48.0958" lon="-4.21248">
        <ele>154.91</ele>
        <time>2017-12-28T15:41:32Z</time>
      </trkpt>
      <trkpt lat="48.09595" lon="-4.21246">
        <ele>155.39</ele>
        <time>2017-12-28T15:41:44Z</time>
      </trkpt>
      <trkpt lat="48.09611" lon="-4.21242">
        <ele>156.35</ele>
        <time>2017-12-28T15:41:55Z</time>
      </trkpt>
      <trkpt lat="48.09625" lon="-4.21237">
        <ele>156.83</ele>
        <time>2017-12-28T15:42:09Z</time>
      </trkpt>
      <trkpt lat="48.09638" lon="-4.21234">
        <ele>155.39</ele>
        <time>2017-12-28T15:42:20Z</time>
      </trkpt>
      <trkpt lat="48.09647" lon="-4.21236">
        <ele>155.87</ele>
        <time>2017-12-28T15:42:32Z</time>
      </trkpt>
      <trkpt lat="48.09652" lon="-4.21237">
        <ele>155.39</ele>
        <time>2017-12-28T15:42:45Z</time>
      </trkpt>
      <trkpt lat="48.09661" lon="-4.2123">
        <ele>154.43</ele>
        <time>2017-12-28T15:42:57Z</time>
      </trkpt>
      <trkpt lat="48.0967" lon="-4.21226">
        <ele>153.47</ele>
        <time>2017-12-28T15:43:08Z</time>
      </trkpt>
      <trkpt lat="48.09677" lon="-4.21221">
        <ele>151.54</ele>
        <time>2017-12-28T15:43:20Z</time>
      </trkpt>
      <trkpt lat="48.0969" lon="-4.21214">
        <ele>146.74</ele>
        <time>2017-12-28T15:43:35Z</time>
      </trkpt>
      <trkpt lat="48.09702" lon="-4.2121">
        <ele>141.93</ele>
        <time>2017-12-28T15:43:47Z</time>
      </trkpt>
      <trkpt lat="48.09706" lon="-4.21205">
        <ele>140.49</ele>
        <time>2017-12-28T15:43:51Z</time>
      </trkpt>
      <trkpt lat="48.0972" lon="-4.21193">
        <ele>140.97</ele>
        <time>2017-12-28T15:44:03Z</time>
      </trkpt>
      <trkpt lat="48.09725" lon="-4.21191">
        <ele>141.93</ele>
        <time>2017-12-28T15:44:06Z</time>
      </trkpt>
      <trkpt lat="48.09737" lon="-4.21184">
        <ele>140.49</ele>
        <time>2017-12-28T15:44:19Z</time>
      </trkpt>
      <trkpt lat="48.09741" lon="-4.21184">
        <ele>139.05</ele>
        <time>2017-12-28T15:44:30Z</time>
      </trkpt>
      <trkpt lat="48.09745" lon="-4.21182">
        <ele>137.13</ele>
        <time>2017-12-28T15:44:37Z</time>
      </trkpt>
      <trkpt lat="48.09759" lon="-4.21173">
        <ele>135.68</ele>
        <time>2017-12-28T15:44:50Z</time>
      </trkpt>
      <trkpt lat="48.0977" lon="-4.21159">
        <ele>138.09</ele>
        <time>2017-12-28T15:45:03Z</time>
      </trkpt>
      <trkpt lat="48.09773" lon="-4.21151">
        <ele>138.57</ele>
        <time>2017-12-28T15:45:08Z</time>
      </trkpt>
      <trkpt lat="48.09778" lon="-4.21144">
        <ele>138.09</ele>
        <time>2017-12-28T15:45:13Z</time>
      </trkpt>
      <trkpt lat="48.09779" lon="-4.21138">
        <ele>138.57</ele>
        <time>2017-12-28T15:45:17Z</time>
      </trkpt>
      <trkpt lat="48.09779" lon="-4.21135">
        <ele>139.53</ele>
        <time>2017-12-28T15:45:19Z</time>
      </trkpt>
      <trkpt lat="48.0978" lon="-4.21131">
        <ele>139.53</ele>
        <time>2017-12-28T15:45:22Z</time>
      </trkpt>
      <trkpt lat="48.09781" lon="-4.21129">
        <ele>139.05</ele>
        <time>2017-12-28T15:45:24Z</time>
      </trkpt>
      <trkpt lat="48.09782" lon="-4.21125">
        <ele>138.57</ele>
        <time>2017-12-28T15:45:26Z</time>
      </trkpt>
      <trkpt lat="48.09787" lon="-4.21109">
        <ele>137.61</ele>
        <time>2017-12-28T15:45:38Z</time>
      </trkpt>
      <trkpt lat="48.0982" lon="-4.20849">
        <ele>140.01</ele>
        <time>2017-12-28T15:48:40Z</time>
      </trkpt>
      <trkpt lat="48.09819" lon="-4.20847">
        <ele>140.49</ele>
        <time>2017-12-28T15:48:52Z</time>
      </trkpt>
      <trkpt lat="48.09819" lon="-4.20847">
        <ele>140.97</ele>
        <time>2017-12-28T15:49:11Z</time>
      </trkpt>
      <trkpt lat="48.09819" lon="-4.20848">
        <ele>141.45</ele>
        <time>2017-12-28T15:49:29Z</time>
      </trkpt>
      <trkpt lat="48.09817" lon="-4.20849">
        <ele>141.45</ele>
        <time>2017-12-28T15:49:47Z</time>
      </trkpt>
      <trkpt lat="48.09817" lon="-4.20848">
        <ele>142.41</ele>
        <time>2017-12-28T15:50:09Z</time>
      </trkpt>
      <trkpt lat="48.09817" lon="-4.20848">
        <ele>142.41</ele>
        <time>2017-12-28T15:50:27Z</time>
      </trkpt>
      <trkpt lat="48.09817" lon="-4.20847">
        <ele>143.37</ele>
        <time>2017-12-28T15:50:45Z</time>
      </trkpt>
      <trkpt lat="48.09817" lon="-4.20847">
        <ele>143.85</ele>
        <time>2017-12-28T15:51:13Z</time>
      </trkpt>
    </trkseg>
  </trk>
</gpx>